<?xml version="1.0" encoding="UTF-8" ?>
		<gpx
		 version="1.0"
		 xmlns:xsi="http://www.w3.org/2001/XMLSchema-instance"
		 xmlns="http://www.topografix.com/GPX/1/0"
		 xsi:schemaLocation="http://www.topografix.com/GPX/1/0 http://www.topografix.com/GPX/1/0/gpx.xsd"
		 creator="http://www.openrunner.com">
			<trk>
				<name>OR-1297576--Mont-de-Marsan:70_35-SJDA-court</name>
			    <trkseg>
	
			<trkpt lat="43.893300" lon="-0.514560">
			 <ele>43</ele>
			<time>2017-01-08T22:01:59Z</time>
			</trkpt>
		
			<trkpt lat="43.892180" lon="-0.514850">
			 <ele>42</ele>
			<time>2017-01-08T22:03:59Z</time>
			</trkpt>
		
			<trkpt lat="43.892180" lon="-0.514850">
			 <ele>42</ele>
			<time>2017-01-08T22:05:59Z</time>
			</trkpt>
		
			<trkpt lat="43.892140" lon="-0.514560">
			 <ele>42</ele>
			<time>2017-01-08T22:07:59Z</time>
			</trkpt>
		
			<trkpt lat="43.892140" lon="-0.514560">
			 <ele>42</ele>
			<time>2017-01-08T22:09:59Z</time>
			</trkpt>
		
			<trkpt lat="43.891910" lon="-0.513300">
			 <ele>45</ele>
			<time>2017-01-08T22:11:59Z</time>
			</trkpt>
		
			<trkpt lat="43.891520" lon="-0.511660">
			 <ele>42</ele>
			<time>2017-01-08T22:13:59Z</time>
			</trkpt>
		
			<trkpt lat="43.891520" lon="-0.511660">
			 <ele>42</ele>
			<time>2017-01-08T22:15:59Z</time>
			</trkpt>
		
			<trkpt lat="43.891410" lon="-0.511130">
			 <ele>43</ele>
			<time>2017-01-08T22:17:59Z</time>
			</trkpt>
		
			<trkpt lat="43.891440" lon="-0.510670">
			 <ele>43</ele>
			<time>2017-01-08T22:19:59Z</time>
			</trkpt>
		
			<trkpt lat="43.891740" lon="-0.509070">
			 <ele>44</ele>
			<time>2017-01-08T22:21:59Z</time>
			</trkpt>
		
			<trkpt lat="43.891740" lon="-0.509070">
			 <ele>44</ele>
			<time>2017-01-08T22:23:59Z</time>
			</trkpt>
		
			<trkpt lat="43.891610" lon="-0.508700">
			 <ele>44</ele>
			<time>2017-01-08T22:25:59Z</time>
			</trkpt>
		
			<trkpt lat="43.891610" lon="-0.508700">
			 <ele>44</ele>
			<time>2017-01-08T22:27:59Z</time>
			</trkpt>
		
			<trkpt lat="43.891270" lon="-0.507410">
			 <ele>45</ele>
			<time>2017-01-08T22:29:59Z</time>
			</trkpt>
		
			<trkpt lat="43.891270" lon="-0.507410">
			 <ele>45</ele>
			<time>2017-01-08T22:31:59Z</time>
			</trkpt>
		
			<trkpt lat="43.891960" lon="-0.507020">
			 <ele>45</ele>
			<time>2017-01-08T22:33:59Z</time>
			</trkpt>
		
			<trkpt lat="43.891960" lon="-0.507020">
			 <ele>45</ele>
			<time>2017-01-08T22:35:59Z</time>
			</trkpt>
		
			<trkpt lat="43.892910" lon="-0.506550">
			 <ele>43</ele>
			<time>2017-01-08T22:37:59Z</time>
			</trkpt>
		
			<trkpt lat="43.892910" lon="-0.506550">
			 <ele>43</ele>
			<time>2017-01-08T22:39:59Z</time>
			</trkpt>
		
			<trkpt lat="43.893000" lon="-0.505500">
			 <ele>41</ele>
			<time>2017-01-08T22:41:59Z</time>
			</trkpt>
		
			<trkpt lat="43.893000" lon="-0.505500">
			 <ele>41</ele>
			<time>2017-01-08T22:43:59Z</time>
			</trkpt>
		
			<trkpt lat="43.893010" lon="-0.505350">
			 <ele>41</ele>
			<time>2017-01-08T22:45:59Z</time>
			</trkpt>
		
			<trkpt lat="43.892910" lon="-0.505020">
			 <ele>40</ele>
			<time>2017-01-08T22:47:59Z</time>
			</trkpt>
		
			<trkpt lat="43.892910" lon="-0.505020">
			 <ele>40</ele>
			<time>2017-01-08T22:49:59Z</time>
			</trkpt>
		
			<trkpt lat="43.892640" lon="-0.504270">
			 <ele>41</ele>
			<time>2017-01-08T22:51:59Z</time>
			</trkpt>
		
			<trkpt lat="43.892640" lon="-0.504270">
			 <ele>41</ele>
			<time>2017-01-08T22:53:59Z</time>
			</trkpt>
		
			<trkpt lat="43.892630" lon="-0.504010">
			 <ele>41</ele>
			<time>2017-01-08T22:55:59Z</time>
			</trkpt>
		
			<trkpt lat="43.892940" lon="-0.502380">
			 <ele>44</ele>
			<time>2017-01-08T22:57:59Z</time>
			</trkpt>
		
			<trkpt lat="43.893020" lon="-0.501650">
			 <ele>46</ele>
			<time>2017-01-08T22:59:59Z</time>
			</trkpt>
		
			<trkpt lat="43.893020" lon="-0.501650">
			 <ele>46</ele>
			<time>2017-01-08T23:01:59Z</time>
			</trkpt>
		
			<trkpt lat="43.893300" lon="-0.498740">
			 <ele>47</ele>
			<time>2017-01-08T23:03:59Z</time>
			</trkpt>
		
			<trkpt lat="43.893420" lon="-0.496900">
			 <ele>47</ele>
			<time>2017-01-08T23:05:59Z</time>
			</trkpt>
		
			<trkpt lat="43.893590" lon="-0.496250">
			 <ele>47</ele>
			<time>2017-01-08T23:07:59Z</time>
			</trkpt>
		
			<trkpt lat="43.894110" lon="-0.495250">
			 <ele>49</ele>
			<time>2017-01-08T23:09:59Z</time>
			</trkpt>
		
			<trkpt lat="43.894110" lon="-0.495250">
			 <ele>49</ele>
			<time>2017-01-08T23:11:59Z</time>
			</trkpt>
		
			<trkpt lat="43.895090" lon="-0.493370">
			 <ele>46</ele>
			<time>2017-01-08T23:13:59Z</time>
			</trkpt>
		
			<trkpt lat="43.897020" lon="-0.489910">
			 <ele>48</ele>
			<time>2017-01-08T23:15:59Z</time>
			</trkpt>
		
			<trkpt lat="43.899060" lon="-0.486060">
			 <ele>47</ele>
			<time>2017-01-08T23:17:59Z</time>
			</trkpt>
		
			<trkpt lat="43.900580" lon="-0.483360">
			 <ele>46</ele>
			<time>2017-01-08T23:19:59Z</time>
			</trkpt>
		
			<trkpt lat="43.900670" lon="-0.483140">
			 <ele>45</ele>
			<time>2017-01-08T23:21:59Z</time>
			</trkpt>
		
			<trkpt lat="43.900670" lon="-0.483140">
			 <ele>45</ele>
			<time>2017-01-08T23:23:59Z</time>
			</trkpt>
		
			<trkpt lat="43.900670" lon="-0.482980">
			 <ele>45</ele>
			<time>2017-01-08T23:25:59Z</time>
			</trkpt>
		
			<trkpt lat="43.900780" lon="-0.482890">
			 <ele>45</ele>
			<time>2017-01-08T23:27:59Z</time>
			</trkpt>
		
			<trkpt lat="43.900860" lon="-0.482930">
			 <ele>45</ele>
			<time>2017-01-08T23:29:59Z</time>
			</trkpt>
		
			<trkpt lat="43.900910" lon="-0.483060">
			 <ele>45</ele>
			<time>2017-01-08T23:31:59Z</time>
			</trkpt>
		
			<trkpt lat="43.901030" lon="-0.483190">
			 <ele>45</ele>
			<time>2017-01-08T23:33:59Z</time>
			</trkpt>
		
			<trkpt lat="43.901540" lon="-0.483120">
			 <ele>44</ele>
			<time>2017-01-08T23:35:59Z</time>
			</trkpt>
		
			<trkpt lat="43.901720" lon="-0.483040">
			 <ele>44</ele>
			<time>2017-01-08T23:37:59Z</time>
			</trkpt>
		
			<trkpt lat="43.902320" lon="-0.482600">
			 <ele>45</ele>
			<time>2017-01-08T23:39:59Z</time>
			</trkpt>
		
			<trkpt lat="43.902320" lon="-0.482600">
			 <ele>45</ele>
			<time>2017-01-08T23:41:59Z</time>
			</trkpt>
		
			<trkpt lat="43.902650" lon="-0.482330">
			 <ele>45</ele>
			<time>2017-01-08T23:43:59Z</time>
			</trkpt>
		
			<trkpt lat="43.902970" lon="-0.482250">
			 <ele>45</ele>
			<time>2017-01-08T23:45:59Z</time>
			</trkpt>
		
			<trkpt lat="43.903080" lon="-0.482240">
			 <ele>45</ele>
			<time>2017-01-08T23:47:59Z</time>
			</trkpt>
		
			<trkpt lat="43.903430" lon="-0.482440">
			 <ele>46</ele>
			<time>2017-01-08T23:49:59Z</time>
			</trkpt>
		
			<trkpt lat="43.905600" lon="-0.485360">
			 <ele>44</ele>
			<time>2017-01-08T23:51:59Z</time>
			</trkpt>
		
			<trkpt lat="43.905930" lon="-0.485740">
			 <ele>46</ele>
			<time>2017-01-08T23:53:59Z</time>
			</trkpt>
		
			<trkpt lat="43.906140" lon="-0.485880">
			 <ele>46</ele>
			<time>2017-01-08T23:55:59Z</time>
			</trkpt>
		
			<trkpt lat="43.906500" lon="-0.486000">
			 <ele>47</ele>
			<time>2017-01-08T23:57:59Z</time>
			</trkpt>
		
			<trkpt lat="43.908810" lon="-0.486390">
			 <ele>53</ele>
			<time>2017-01-08T23:59:59Z</time>
			</trkpt>
		
			<trkpt lat="43.909150" lon="-0.486290">
			 <ele>53</ele>
			<time>2017-01-09T00:01:59Z</time>
			</trkpt>
		
			<trkpt lat="43.909360" lon="-0.486110">
			 <ele>55</ele>
			<time>2017-01-09T00:03:59Z</time>
			</trkpt>
		
			<trkpt lat="43.909480" lon="-0.485920">
			 <ele>55</ele>
			<time>2017-01-09T00:05:59Z</time>
			</trkpt>
		
			<trkpt lat="43.910700" lon="-0.482980">
			 <ele>51</ele>
			<time>2017-01-09T00:07:59Z</time>
			</trkpt>
		
			<trkpt lat="43.910970" lon="-0.482430">
			 <ele>47</ele>
			<time>2017-01-09T00:09:59Z</time>
			</trkpt>
		
			<trkpt lat="43.911230" lon="-0.482190">
			 <ele>46</ele>
			<time>2017-01-09T00:11:59Z</time>
			</trkpt>
		
			<trkpt lat="43.911770" lon="-0.481830">
			 <ele>44</ele>
			<time>2017-01-09T00:13:59Z</time>
			</trkpt>
		
			<trkpt lat="43.911910" lon="-0.481650">
			 <ele>43</ele>
			<time>2017-01-09T00:15:59Z</time>
			</trkpt>
		
			<trkpt lat="43.912440" lon="-0.480660">
			 <ele>42</ele>
			<time>2017-01-09T00:17:59Z</time>
			</trkpt>
		
			<trkpt lat="43.912620" lon="-0.480470">
			 <ele>43</ele>
			<time>2017-01-09T00:19:59Z</time>
			</trkpt>
		
			<trkpt lat="43.912880" lon="-0.480290">
			 <ele>44</ele>
			<time>2017-01-09T00:21:59Z</time>
			</trkpt>
		
			<trkpt lat="43.913230" lon="-0.480160">
			 <ele>46</ele>
			<time>2017-01-09T00:23:59Z</time>
			</trkpt>
		
			<trkpt lat="43.913510" lon="-0.480190">
			 <ele>47</ele>
			<time>2017-01-09T00:25:59Z</time>
			</trkpt>
		
			<trkpt lat="43.916290" lon="-0.481430">
			 <ele>54</ele>
			<time>2017-01-09T00:27:59Z</time>
			</trkpt>
		
			<trkpt lat="43.916710" lon="-0.481840">
			 <ele>56</ele>
			<time>2017-01-09T00:29:59Z</time>
			</trkpt>
		
			<trkpt lat="43.923640" lon="-0.490930">
			 <ele>69</ele>
			<time>2017-01-09T00:31:59Z</time>
			</trkpt>
		
			<trkpt lat="43.923770" lon="-0.491220">
			 <ele>70</ele>
			<time>2017-01-09T00:33:59Z</time>
			</trkpt>
		
			<trkpt lat="43.923850" lon="-0.491580">
			 <ele>70</ele>
			<time>2017-01-09T00:35:59Z</time>
			</trkpt>
		
			<trkpt lat="43.924240" lon="-0.495440">
			 <ele>72</ele>
			<time>2017-01-09T00:37:59Z</time>
			</trkpt>
		
			<trkpt lat="43.924240" lon="-0.495440">
			 <ele>72</ele>
			<time>2017-01-09T00:39:59Z</time>
			</trkpt>
		
			<trkpt lat="43.924630" lon="-0.495990">
			 <ele>71</ele>
			<time>2017-01-09T00:41:59Z</time>
			</trkpt>
		
			<trkpt lat="43.925010" lon="-0.496210">
			 <ele>72</ele>
			<time>2017-01-09T00:43:59Z</time>
			</trkpt>
		
			<trkpt lat="43.926910" lon="-0.495000">
			 <ele>75</ele>
			<time>2017-01-09T00:45:59Z</time>
			</trkpt>
		
			<trkpt lat="43.926910" lon="-0.495000">
			 <ele>75</ele>
			<time>2017-01-09T00:47:59Z</time>
			</trkpt>
		
			<trkpt lat="43.930580" lon="-0.492630">
			 <ele>73</ele>
			<time>2017-01-09T00:49:59Z</time>
			</trkpt>
		
			<trkpt lat="43.931320" lon="-0.492180">
			 <ele>74</ele>
			<time>2017-01-09T00:51:59Z</time>
			</trkpt>
		
			<trkpt lat="43.931490" lon="-0.492130">
			 <ele>75</ele>
			<time>2017-01-09T00:53:59Z</time>
			</trkpt>
		
			<trkpt lat="43.941320" lon="-0.489910">
			 <ele>75</ele>
			<time>2017-01-09T00:55:59Z</time>
			</trkpt>
		
			<trkpt lat="43.948950" lon="-0.488090">
			 <ele>77</ele>
			<time>2017-01-09T00:57:59Z</time>
			</trkpt>
		
			<trkpt lat="43.975430" lon="-0.481480">
			 <ele>77</ele>
			<time>2017-01-09T00:59:59Z</time>
			</trkpt>
		
			<trkpt lat="43.977670" lon="-0.480440">
			 <ele>78</ele>
			<time>2017-01-09T01:01:59Z</time>
			</trkpt>
		
			<trkpt lat="43.986780" lon="-0.475930">
			 <ele>89</ele>
			<time>2017-01-09T01:03:59Z</time>
			</trkpt>
		
			<trkpt lat="43.987040" lon="-0.475620">
			 <ele>88</ele>
			<time>2017-01-09T01:05:59Z</time>
			</trkpt>
		
			<trkpt lat="43.989210" lon="-0.470030">
			 <ele>88</ele>
			<time>2017-01-09T01:07:59Z</time>
			</trkpt>
		
			<trkpt lat="43.990200" lon="-0.467940">
			 <ele>86</ele>
			<time>2017-01-09T01:09:59Z</time>
			</trkpt>
		
			<trkpt lat="43.991160" lon="-0.466030">
			 <ele>88</ele>
			<time>2017-01-09T01:11:59Z</time>
			</trkpt>
		
			<trkpt lat="43.998340" lon="-0.459340">
			 <ele>82</ele>
			<time>2017-01-09T01:13:59Z</time>
			</trkpt>
		
			<trkpt lat="43.999650" lon="-0.457910">
			 <ele>84</ele>
			<time>2017-01-09T01:15:59Z</time>
			</trkpt>
		
			<trkpt lat="44.000820" lon="-0.456510">
			 <ele>89</ele>
			<time>2017-01-09T01:17:59Z</time>
			</trkpt>
		
			<trkpt lat="44.000930" lon="-0.456300">
			 <ele>88</ele>
			<time>2017-01-09T01:19:59Z</time>
			</trkpt>
		
			<trkpt lat="44.001050" lon="-0.455910">
			 <ele>87</ele>
			<time>2017-01-09T01:21:59Z</time>
			</trkpt>
		
			<trkpt lat="44.001130" lon="-0.455030">
			 <ele>87</ele>
			<time>2017-01-09T01:23:59Z</time>
			</trkpt>
		
			<trkpt lat="44.001290" lon="-0.454780">
			 <ele>85</ele>
			<time>2017-01-09T01:25:59Z</time>
			</trkpt>
		
			<trkpt lat="44.001700" lon="-0.454370">
			 <ele>82</ele>
			<time>2017-01-09T01:27:59Z</time>
			</trkpt>
		
			<trkpt lat="44.001820" lon="-0.454090">
			 <ele>81</ele>
			<time>2017-01-09T01:29:59Z</time>
			</trkpt>
		
			<trkpt lat="44.001860" lon="-0.453870">
			 <ele>81</ele>
			<time>2017-01-09T01:31:59Z</time>
			</trkpt>
		
			<trkpt lat="44.001850" lon="-0.453110">
			 <ele>79</ele>
			<time>2017-01-09T01:33:59Z</time>
			</trkpt>
		
			<trkpt lat="44.001920" lon="-0.452260">
			 <ele>78</ele>
			<time>2017-01-09T01:35:59Z</time>
			</trkpt>
		
			<trkpt lat="44.001980" lon="-0.451840">
			 <ele>79</ele>
			<time>2017-01-09T01:37:59Z</time>
			</trkpt>
		
			<trkpt lat="44.002090" lon="-0.451440">
			 <ele>82</ele>
			<time>2017-01-09T01:39:59Z</time>
			</trkpt>
		
			<trkpt lat="44.002390" lon="-0.450760">
			 <ele>87</ele>
			<time>2017-01-09T01:41:59Z</time>
			</trkpt>
		
			<trkpt lat="44.002620" lon="-0.450400">
			 <ele>89</ele>
			<time>2017-01-09T01:43:59Z</time>
			</trkpt>
		
			<trkpt lat="44.004450" lon="-0.448110">
			 <ele>92</ele>
			<time>2017-01-09T01:45:59Z</time>
			</trkpt>
		
			<trkpt lat="44.004750" lon="-0.447630">
			 <ele>91</ele>
			<time>2017-01-09T01:47:59Z</time>
			</trkpt>
		
			<trkpt lat="44.004990" lon="-0.446890">
			 <ele>88</ele>
			<time>2017-01-09T01:49:59Z</time>
			</trkpt>
		
			<trkpt lat="44.005170" lon="-0.445660">
			 <ele>87</ele>
			<time>2017-01-09T01:51:59Z</time>
			</trkpt>
		
			<trkpt lat="44.005380" lon="-0.445040">
			 <ele>85</ele>
			<time>2017-01-09T01:53:59Z</time>
			</trkpt>
		
			<trkpt lat="44.005610" lon="-0.444180">
			 <ele>81</ele>
			<time>2017-01-09T01:55:59Z</time>
			</trkpt>
		
			<trkpt lat="44.005790" lon="-0.443780">
			 <ele>78</ele>
			<time>2017-01-09T01:57:59Z</time>
			</trkpt>
		
			<trkpt lat="44.005790" lon="-0.443780">
			 <ele>78</ele>
			<time>2017-01-09T01:59:59Z</time>
			</trkpt>
		
			<trkpt lat="44.006120" lon="-0.443450">
			 <ele>77</ele>
			<time>2017-01-09T02:01:59Z</time>
			</trkpt>
		
			<trkpt lat="44.006680" lon="-0.443280">
			 <ele>80</ele>
			<time>2017-01-09T02:03:59Z</time>
			</trkpt>
		
			<trkpt lat="44.006680" lon="-0.443280">
			 <ele>80</ele>
			<time>2017-01-09T02:05:59Z</time>
			</trkpt>
		
			<trkpt lat="44.006470" lon="-0.442370">
			 <ele>80</ele>
			<time>2017-01-09T02:07:59Z</time>
			</trkpt>
		
			<trkpt lat="44.006410" lon="-0.441890">
			 <ele>80</ele>
			<time>2017-01-09T02:09:59Z</time>
			</trkpt>
		
			<trkpt lat="44.006410" lon="-0.441890">
			 <ele>80</ele>
			<time>2017-01-09T02:11:59Z</time>
			</trkpt>
		
			<trkpt lat="44.006210" lon="-0.440770">
			 <ele>82</ele>
			<time>2017-01-09T02:13:59Z</time>
			</trkpt>
		
			<trkpt lat="44.004690" lon="-0.433660">
			 <ele>81</ele>
			<time>2017-01-09T02:15:59Z</time>
			</trkpt>
		
			<trkpt lat="44.004290" lon="-0.432000">
			 <ele>79</ele>
			<time>2017-01-09T02:17:59Z</time>
			</trkpt>
		
			<trkpt lat="44.004000" lon="-0.431190">
			 <ele>78</ele>
			<time>2017-01-09T02:19:59Z</time>
			</trkpt>
		
			<trkpt lat="44.001510" lon="-0.424950">
			 <ele>60</ele>
			<time>2017-01-09T02:21:59Z</time>
			</trkpt>
		
			<trkpt lat="44.001120" lon="-0.423860">
			 <ele>59</ele>
			<time>2017-01-09T02:23:59Z</time>
			</trkpt>
		
			<trkpt lat="44.000930" lon="-0.423460">
			 <ele>58</ele>
			<time>2017-01-09T02:25:59Z</time>
			</trkpt>
		
			<trkpt lat="44.000690" lon="-0.423130">
			 <ele>57</ele>
			<time>2017-01-09T02:27:59Z</time>
			</trkpt>
		
			<trkpt lat="44.000330" lon="-0.422860">
			 <ele>57</ele>
			<time>2017-01-09T02:29:59Z</time>
			</trkpt>
		
			<trkpt lat="43.999720" lon="-0.422500">
			 <ele>60</ele>
			<time>2017-01-09T02:31:59Z</time>
			</trkpt>
		
			<trkpt lat="43.996600" lon="-0.421060">
			 <ele>69</ele>
			<time>2017-01-09T02:33:59Z</time>
			</trkpt>
		
			<trkpt lat="43.991860" lon="-0.418770">
			 <ele>66</ele>
			<time>2017-01-09T02:35:59Z</time>
			</trkpt>
		
			<trkpt lat="43.991370" lon="-0.418460">
			 <ele>66</ele>
			<time>2017-01-09T02:37:59Z</time>
			</trkpt>
		
			<trkpt lat="43.991140" lon="-0.418210">
			 <ele>66</ele>
			<time>2017-01-09T02:39:59Z</time>
			</trkpt>
		
			<trkpt lat="43.990830" lon="-0.417740">
			 <ele>66</ele>
			<time>2017-01-09T02:41:59Z</time>
			</trkpt>
		
			<trkpt lat="43.985310" lon="-0.408890">
			 <ele>83</ele>
			<time>2017-01-09T02:43:59Z</time>
			</trkpt>
		
			<trkpt lat="43.985010" lon="-0.408460">
			 <ele>84</ele>
			<time>2017-01-09T02:45:59Z</time>
			</trkpt>
		
			<trkpt lat="43.984820" lon="-0.408300">
			 <ele>84</ele>
			<time>2017-01-09T02:47:59Z</time>
			</trkpt>
		
			<trkpt lat="43.984430" lon="-0.408140">
			 <ele>86</ele>
			<time>2017-01-09T02:49:59Z</time>
			</trkpt>
		
			<trkpt lat="43.982210" lon="-0.407780">
			 <ele>78</ele>
			<time>2017-01-09T02:51:59Z</time>
			</trkpt>
		
			<trkpt lat="43.981860" lon="-0.407680">
			 <ele>77</ele>
			<time>2017-01-09T02:53:59Z</time>
			</trkpt>
		
			<trkpt lat="43.981700" lon="-0.407440">
			 <ele>76</ele>
			<time>2017-01-09T02:55:59Z</time>
			</trkpt>
		
			<trkpt lat="43.981570" lon="-0.407090">
			 <ele>76</ele>
			<time>2017-01-09T02:57:59Z</time>
			</trkpt>
		
			<trkpt lat="43.981400" lon="-0.406900">
			 <ele>76</ele>
			<time>2017-01-09T02:59:59Z</time>
			</trkpt>
		
			<trkpt lat="43.980670" lon="-0.406740">
			 <ele>81</ele>
			<time>2017-01-09T03:01:59Z</time>
			</trkpt>
		
			<trkpt lat="43.974640" lon="-0.402720">
			 <ele>83</ele>
			<time>2017-01-09T03:03:59Z</time>
			</trkpt>
		
			<trkpt lat="43.974400" lon="-0.402610">
			 <ele>82</ele>
			<time>2017-01-09T03:05:59Z</time>
			</trkpt>
		
			<trkpt lat="43.974210" lon="-0.402590">
			 <ele>82</ele>
			<time>2017-01-09T03:07:59Z</time>
			</trkpt>
		
			<trkpt lat="43.973440" lon="-0.402910">
			 <ele>82</ele>
			<time>2017-01-09T03:09:59Z</time>
			</trkpt>
		
			<trkpt lat="43.973440" lon="-0.402910">
			 <ele>82</ele>
			<time>2017-01-09T03:11:59Z</time>
			</trkpt>
		
			<trkpt lat="43.972240" lon="-0.403460">
			 <ele>88</ele>
			<time>2017-01-09T03:13:59Z</time>
			</trkpt>
		
			<trkpt lat="43.972240" lon="-0.403460">
			 <ele>88</ele>
			<time>2017-01-09T03:15:59Z</time>
			</trkpt>
		
			<trkpt lat="43.972100" lon="-0.402330">
			 <ele>89</ele>
			<time>2017-01-09T03:17:59Z</time>
			</trkpt>
		
			<trkpt lat="43.971810" lon="-0.401030">
			 <ele>90</ele>
			<time>2017-01-09T03:19:59Z</time>
			</trkpt>
		
			<trkpt lat="43.971810" lon="-0.401030">
			 <ele>90</ele>
			<time>2017-01-09T03:21:59Z</time>
			</trkpt>
		
			<trkpt lat="43.970990" lon="-0.398890">
			 <ele>93</ele>
			<time>2017-01-09T03:23:59Z</time>
			</trkpt>
		
			<trkpt lat="43.970950" lon="-0.398480">
			 <ele>93</ele>
			<time>2017-01-09T03:25:59Z</time>
			</trkpt>
		
			<trkpt lat="43.971010" lon="-0.397800">
			 <ele>93</ele>
			<time>2017-01-09T03:27:59Z</time>
			</trkpt>
		
			<trkpt lat="43.971420" lon="-0.395330">
			 <ele>88</ele>
			<time>2017-01-09T03:29:59Z</time>
			</trkpt>
		
			<trkpt lat="43.972040" lon="-0.393050">
			 <ele>92</ele>
			<time>2017-01-09T03:31:59Z</time>
			</trkpt>
		
			<trkpt lat="43.972160" lon="-0.392180">
			 <ele>94</ele>
			<time>2017-01-09T03:33:59Z</time>
			</trkpt>
		
			<trkpt lat="43.972250" lon="-0.389440">
			 <ele>94</ele>
			<time>2017-01-09T03:35:59Z</time>
			</trkpt>
		
			<trkpt lat="43.972170" lon="-0.388040">
			 <ele>93</ele>
			<time>2017-01-09T03:37:59Z</time>
			</trkpt>
		
			<trkpt lat="43.971860" lon="-0.385690">
			 <ele>94</ele>
			<time>2017-01-09T03:39:59Z</time>
			</trkpt>
		
			<trkpt lat="43.971690" lon="-0.385030">
			 <ele>95</ele>
			<time>2017-01-09T03:41:59Z</time>
			</trkpt>
		
			<trkpt lat="43.971110" lon="-0.383450">
			 <ele>92</ele>
			<time>2017-01-09T03:43:59Z</time>
			</trkpt>
		
			<trkpt lat="43.971000" lon="-0.383460">
			 <ele>92</ele>
			<time>2017-01-09T03:45:59Z</time>
			</trkpt>
		
			<trkpt lat="43.969270" lon="-0.384570">
			 <ele>97</ele>
			<time>2017-01-09T03:47:59Z</time>
			</trkpt>
		
			<trkpt lat="43.969050" lon="-0.384670">
			 <ele>98</ele>
			<time>2017-01-09T03:49:59Z</time>
			</trkpt>
		
			<trkpt lat="43.968890" lon="-0.384260">
			 <ele>97</ele>
			<time>2017-01-09T03:51:59Z</time>
			</trkpt>
		
			<trkpt lat="43.968560" lon="-0.382940">
			 <ele>98</ele>
			<time>2017-01-09T03:53:59Z</time>
			</trkpt>
		
			<trkpt lat="43.968580" lon="-0.382860">
			 <ele>98</ele>
			<time>2017-01-09T03:55:59Z</time>
			</trkpt>
		
			<trkpt lat="43.968790" lon="-0.382690">
			 <ele>97</ele>
			<time>2017-01-09T03:57:59Z</time>
			</trkpt>
		
			<trkpt lat="43.970490" lon="-0.381570">
			 <ele>91</ele>
			<time>2017-01-09T03:59:59Z</time>
			</trkpt>
		
			<trkpt lat="43.970050" lon="-0.380270">
			 <ele>92</ele>
			<time>2017-01-09T04:01:59Z</time>
			</trkpt>
		
			<trkpt lat="43.970050" lon="-0.380270">
			 <ele>92</ele>
			<time>2017-01-09T04:03:59Z</time>
			</trkpt>
		
			<trkpt lat="43.969550" lon="-0.378820">
			 <ele>99</ele>
			<time>2017-01-09T04:05:59Z</time>
			</trkpt>
		
			<trkpt lat="43.969490" lon="-0.378530">
			 <ele>100</ele>
			<time>2017-01-09T04:07:59Z</time>
			</trkpt>
		
			<trkpt lat="43.969490" lon="-0.377980">
			 <ele>100</ele>
			<time>2017-01-09T04:09:59Z</time>
			</trkpt>
		
			<trkpt lat="43.969800" lon="-0.374390">
			 <ele>101</ele>
			<time>2017-01-09T04:11:59Z</time>
			</trkpt>
		
			<trkpt lat="43.969840" lon="-0.374240">
			 <ele>101</ele>
			<time>2017-01-09T04:13:59Z</time>
			</trkpt>
		
			<trkpt lat="43.970110" lon="-0.373850">
			 <ele>100</ele>
			<time>2017-01-09T04:15:59Z</time>
			</trkpt>
		
			<trkpt lat="43.970800" lon="-0.373250">
			 <ele>98</ele>
			<time>2017-01-09T04:17:59Z</time>
			</trkpt>
		
			<trkpt lat="43.971170" lon="-0.372860">
			 <ele>100</ele>
			<time>2017-01-09T04:19:59Z</time>
			</trkpt>
		
			<trkpt lat="43.971360" lon="-0.372430">
			 <ele>101</ele>
			<time>2017-01-09T04:21:59Z</time>
			</trkpt>
		
			<trkpt lat="43.971410" lon="-0.372130">
			 <ele>100</ele>
			<time>2017-01-09T04:23:59Z</time>
			</trkpt>
		
			<trkpt lat="43.971390" lon="-0.371220">
			 <ele>99</ele>
			<time>2017-01-09T04:25:59Z</time>
			</trkpt>
		
			<trkpt lat="43.970950" lon="-0.369300">
			 <ele>100</ele>
			<time>2017-01-09T04:27:59Z</time>
			</trkpt>
		
			<trkpt lat="43.970920" lon="-0.368840">
			 <ele>99</ele>
			<time>2017-01-09T04:29:59Z</time>
			</trkpt>
		
			<trkpt lat="43.971040" lon="-0.368640">
			 <ele>97</ele>
			<time>2017-01-09T04:31:59Z</time>
			</trkpt>
		
			<trkpt lat="43.971220" lon="-0.368490">
			 <ele>96</ele>
			<time>2017-01-09T04:33:59Z</time>
			</trkpt>
		
			<trkpt lat="43.972670" lon="-0.367400">
			 <ele>96</ele>
			<time>2017-01-09T04:35:59Z</time>
			</trkpt>
		
			<trkpt lat="43.973050" lon="-0.366970">
			 <ele>97</ele>
			<time>2017-01-09T04:37:59Z</time>
			</trkpt>
		
			<trkpt lat="43.973150" lon="-0.366660">
			 <ele>97</ele>
			<time>2017-01-09T04:39:59Z</time>
			</trkpt>
		
			<trkpt lat="43.973190" lon="-0.365230">
			 <ele>100</ele>
			<time>2017-01-09T04:41:59Z</time>
			</trkpt>
		
			<trkpt lat="43.973170" lon="-0.364400">
			 <ele>100</ele>
			<time>2017-01-09T04:43:59Z</time>
			</trkpt>
		
			<trkpt lat="43.972540" lon="-0.362320">
			 <ele>99</ele>
			<time>2017-01-09T04:45:59Z</time>
			</trkpt>
		
			<trkpt lat="43.971720" lon="-0.360250">
			 <ele>101</ele>
			<time>2017-01-09T04:47:59Z</time>
			</trkpt>
		
			<trkpt lat="43.971720" lon="-0.360250">
			 <ele>101</ele>
			<time>2017-01-09T04:49:59Z</time>
			</trkpt>
		
			<trkpt lat="43.971470" lon="-0.360320">
			 <ele>100</ele>
			<time>2017-01-09T04:51:59Z</time>
			</trkpt>
		
			<trkpt lat="43.971470" lon="-0.360320">
			 <ele>100</ele>
			<time>2017-01-09T04:53:59Z</time>
			</trkpt>
		
			<trkpt lat="43.971150" lon="-0.358790">
			 <ele>101</ele>
			<time>2017-01-09T04:55:59Z</time>
			</trkpt>
		
			<trkpt lat="43.971140" lon="-0.358580">
			 <ele>101</ele>
			<time>2017-01-09T04:57:59Z</time>
			</trkpt>
		
			<trkpt lat="43.971300" lon="-0.357490">
			 <ele>104</ele>
			<time>2017-01-09T04:59:59Z</time>
			</trkpt>
		
			<trkpt lat="43.971320" lon="-0.357060">
			 <ele>107</ele>
			<time>2017-01-09T05:01:59Z</time>
			</trkpt>
		
			<trkpt lat="43.971280" lon="-0.356840">
			 <ele>108</ele>
			<time>2017-01-09T05:03:59Z</time>
			</trkpt>
		
			<trkpt lat="43.970820" lon="-0.355560">
			 <ele>112</ele>
			<time>2017-01-09T05:05:59Z</time>
			</trkpt>
		
			<trkpt lat="43.970740" lon="-0.355100">
			 <ele>112</ele>
			<time>2017-01-09T05:07:59Z</time>
			</trkpt>
		
			<trkpt lat="43.970420" lon="-0.351140">
			 <ele>118</ele>
			<time>2017-01-09T05:09:59Z</time>
			</trkpt>
		
			<trkpt lat="43.970390" lon="-0.350580">
			 <ele>119</ele>
			<time>2017-01-09T05:11:59Z</time>
			</trkpt>
		
			<trkpt lat="43.970410" lon="-0.350030">
			 <ele>120</ele>
			<time>2017-01-09T05:13:59Z</time>
			</trkpt>
		
			<trkpt lat="43.970410" lon="-0.350030">
			 <ele>120</ele>
			<time>2017-01-09T05:15:59Z</time>
			</trkpt>
		
			<trkpt lat="43.970530" lon="-0.348380">
			 <ele>119</ele>
			<time>2017-01-09T05:17:59Z</time>
			</trkpt>
		
			<trkpt lat="43.970460" lon="-0.345680">
			 <ele>120</ele>
			<time>2017-01-09T05:19:59Z</time>
			</trkpt>
		
			<trkpt lat="43.969940" lon="-0.342780">
			 <ele>119</ele>
			<time>2017-01-09T05:21:59Z</time>
			</trkpt>
		
			<trkpt lat="43.969940" lon="-0.342330">
			 <ele>119</ele>
			<time>2017-01-09T05:23:59Z</time>
			</trkpt>
		
			<trkpt lat="43.970000" lon="-0.341750">
			 <ele>121</ele>
			<time>2017-01-09T05:25:59Z</time>
			</trkpt>
		
			<trkpt lat="43.969960" lon="-0.341330">
			 <ele>123</ele>
			<time>2017-01-09T05:27:59Z</time>
			</trkpt>
		
			<trkpt lat="43.969600" lon="-0.339610">
			 <ele>131</ele>
			<time>2017-01-09T05:29:59Z</time>
			</trkpt>
		
			<trkpt lat="43.969510" lon="-0.338960">
			 <ele>131</ele>
			<time>2017-01-09T05:31:59Z</time>
			</trkpt>
		
			<trkpt lat="43.969520" lon="-0.338800">
			 <ele>131</ele>
			<time>2017-01-09T05:33:59Z</time>
			</trkpt>
		
			<trkpt lat="43.970080" lon="-0.336600">
			 <ele>130</ele>
			<time>2017-01-09T05:35:59Z</time>
			</trkpt>
		
			<trkpt lat="43.970670" lon="-0.334700">
			 <ele>139</ele>
			<time>2017-01-09T05:37:59Z</time>
			</trkpt>
		
			<trkpt lat="43.970730" lon="-0.333280">
			 <ele>144</ele>
			<time>2017-01-09T05:39:59Z</time>
			</trkpt>
		
			<trkpt lat="43.970920" lon="-0.331560">
			 <ele>136</ele>
			<time>2017-01-09T05:41:59Z</time>
			</trkpt>
		
			<trkpt lat="43.970850" lon="-0.330870">
			 <ele>134</ele>
			<time>2017-01-09T05:43:59Z</time>
			</trkpt>
		
			<trkpt lat="43.970850" lon="-0.330870">
			 <ele>134</ele>
			<time>2017-01-09T05:45:59Z</time>
			</trkpt>
		
			<trkpt lat="43.970730" lon="-0.330140">
			 <ele>132</ele>
			<time>2017-01-09T05:47:59Z</time>
			</trkpt>
		
			<trkpt lat="43.970730" lon="-0.330140">
			 <ele>132</ele>
			<time>2017-01-09T05:49:59Z</time>
			</trkpt>
		
			<trkpt lat="43.970640" lon="-0.329740">
			 <ele>132</ele>
			<time>2017-01-09T05:51:59Z</time>
			</trkpt>
		
			<trkpt lat="43.970260" lon="-0.328910">
			 <ele>133</ele>
			<time>2017-01-09T05:53:59Z</time>
			</trkpt>
		
			<trkpt lat="43.970040" lon="-0.328200">
			 <ele>133</ele>
			<time>2017-01-09T05:55:59Z</time>
			</trkpt>
		
			<trkpt lat="43.970040" lon="-0.328200">
			 <ele>133</ele>
			<time>2017-01-09T05:57:59Z</time>
			</trkpt>
		
			<trkpt lat="43.968700" lon="-0.328970">
			 <ele>136</ele>
			<time>2017-01-09T05:59:59Z</time>
			</trkpt>
		
			<trkpt lat="43.968700" lon="-0.328970">
			 <ele>136</ele>
			<time>2017-01-09T06:01:59Z</time>
			</trkpt>
		
			<trkpt lat="43.968170" lon="-0.329280">
			 <ele>136</ele>
			<time>2017-01-09T06:03:59Z</time>
			</trkpt>
		
			<trkpt lat="43.966540" lon="-0.329930">
			 <ele>134</ele>
			<time>2017-01-09T06:05:59Z</time>
			</trkpt>
		
			<trkpt lat="43.965680" lon="-0.330370">
			 <ele>130</ele>
			<time>2017-01-09T06:07:59Z</time>
			</trkpt>
		
			<trkpt lat="43.965340" lon="-0.330430">
			 <ele>131</ele>
			<time>2017-01-09T06:09:59Z</time>
			</trkpt>
		
			<trkpt lat="43.965010" lon="-0.330310">
			 <ele>131</ele>
			<time>2017-01-09T06:11:59Z</time>
			</trkpt>
		
			<trkpt lat="43.961910" lon="-0.328300">
			 <ele>123</ele>
			<time>2017-01-09T06:13:59Z</time>
			</trkpt>
		
			<trkpt lat="43.961910" lon="-0.328300">
			 <ele>123</ele>
			<time>2017-01-09T06:15:59Z</time>
			</trkpt>
		
			<trkpt lat="43.960780" lon="-0.327610">
			 <ele>118</ele>
			<time>2017-01-09T06:17:59Z</time>
			</trkpt>
		
			<trkpt lat="43.960780" lon="-0.327610">
			 <ele>118</ele>
			<time>2017-01-09T06:19:59Z</time>
			</trkpt>
		
			<trkpt lat="43.959430" lon="-0.326950">
			 <ele>113</ele>
			<time>2017-01-09T06:21:59Z</time>
			</trkpt>
		
			<trkpt lat="43.959430" lon="-0.326950">
			 <ele>113</ele>
			<time>2017-01-09T06:23:59Z</time>
			</trkpt>
		
			<trkpt lat="43.958530" lon="-0.326600">
			 <ele>110</ele>
			<time>2017-01-09T06:25:59Z</time>
			</trkpt>
		
			<trkpt lat="43.958210" lon="-0.326540">
			 <ele>109</ele>
			<time>2017-01-09T06:27:59Z</time>
			</trkpt>
		
			<trkpt lat="43.956960" lon="-0.327020">
			 <ele>107</ele>
			<time>2017-01-09T06:29:59Z</time>
			</trkpt>
		
			<trkpt lat="43.956350" lon="-0.327500">
			 <ele>106</ele>
			<time>2017-01-09T06:31:59Z</time>
			</trkpt>
		
			<trkpt lat="43.956090" lon="-0.327610">
			 <ele>105</ele>
			<time>2017-01-09T06:33:59Z</time>
			</trkpt>
		
			<trkpt lat="43.955540" lon="-0.327700">
			 <ele>104</ele>
			<time>2017-01-09T06:35:59Z</time>
			</trkpt>
		
			<trkpt lat="43.954060" lon="-0.327810">
			 <ele>102</ele>
			<time>2017-01-09T06:37:59Z</time>
			</trkpt>
		
			<trkpt lat="43.951600" lon="-0.327440">
			 <ele>102</ele>
			<time>2017-01-09T06:39:59Z</time>
			</trkpt>
		
			<trkpt lat="43.949700" lon="-0.326710">
			 <ele>103</ele>
			<time>2017-01-09T06:41:59Z</time>
			</trkpt>
		
			<trkpt lat="43.949700" lon="-0.326710">
			 <ele>103</ele>
			<time>2017-01-09T06:43:59Z</time>
			</trkpt>
		
			<trkpt lat="43.948360" lon="-0.325890">
			 <ele>105</ele>
			<time>2017-01-09T06:45:59Z</time>
			</trkpt>
		
			<trkpt lat="43.947000" lon="-0.325240">
			 <ele>106</ele>
			<time>2017-01-09T06:47:59Z</time>
			</trkpt>
		
			<trkpt lat="43.946240" lon="-0.324930">
			 <ele>105</ele>
			<time>2017-01-09T06:49:59Z</time>
			</trkpt>
		
			<trkpt lat="43.944600" lon="-0.324510">
			 <ele>104</ele>
			<time>2017-01-09T06:51:59Z</time>
			</trkpt>
		
			<trkpt lat="43.943780" lon="-0.323850">
			 <ele>99</ele>
			<time>2017-01-09T06:53:59Z</time>
			</trkpt>
		
			<trkpt lat="43.942920" lon="-0.323460">
			 <ele>92</ele>
			<time>2017-01-09T06:55:59Z</time>
			</trkpt>
		
			<trkpt lat="43.942710" lon="-0.323410">
			 <ele>92</ele>
			<time>2017-01-09T06:57:59Z</time>
			</trkpt>
		
			<trkpt lat="43.942550" lon="-0.323430">
			 <ele>91</ele>
			<time>2017-01-09T06:59:59Z</time>
			</trkpt>
		
			<trkpt lat="43.941160" lon="-0.324030">
			 <ele>92</ele>
			<time>2017-01-09T07:01:59Z</time>
			</trkpt>
		
			<trkpt lat="43.940870" lon="-0.324300">
			 <ele>93</ele>
			<time>2017-01-09T07:03:59Z</time>
			</trkpt>
		
			<trkpt lat="43.939480" lon="-0.326400">
			 <ele>96</ele>
			<time>2017-01-09T07:05:59Z</time>
			</trkpt>
		
			<trkpt lat="43.939280" lon="-0.326770">
			 <ele>97</ele>
			<time>2017-01-09T07:07:59Z</time>
			</trkpt>
		
			<trkpt lat="43.939140" lon="-0.327220">
			 <ele>97</ele>
			<time>2017-01-09T07:09:59Z</time>
			</trkpt>
		
			<trkpt lat="43.939040" lon="-0.327730">
			 <ele>98</ele>
			<time>2017-01-09T07:11:59Z</time>
			</trkpt>
		
			<trkpt lat="43.938780" lon="-0.329450">
			 <ele>94</ele>
			<time>2017-01-09T07:13:59Z</time>
			</trkpt>
		
			<trkpt lat="43.938530" lon="-0.330380">
			 <ele>92</ele>
			<time>2017-01-09T07:15:59Z</time>
			</trkpt>
		
			<trkpt lat="43.938100" lon="-0.331340">
			 <ele>89</ele>
			<time>2017-01-09T07:17:59Z</time>
			</trkpt>
		
			<trkpt lat="43.937960" lon="-0.331970">
			 <ele>87</ele>
			<time>2017-01-09T07:19:59Z</time>
			</trkpt>
		
			<trkpt lat="43.937530" lon="-0.332620">
			 <ele>84</ele>
			<time>2017-01-09T07:21:59Z</time>
			</trkpt>
		
			<trkpt lat="43.937530" lon="-0.332620">
			 <ele>84</ele>
			<time>2017-01-09T07:23:59Z</time>
			</trkpt>
		
			<trkpt lat="43.937130" lon="-0.333110">
			 <ele>84</ele>
			<time>2017-01-09T07:25:59Z</time>
			</trkpt>
		
			<trkpt lat="43.937130" lon="-0.333110">
			 <ele>84</ele>
			<time>2017-01-09T07:27:59Z</time>
			</trkpt>
		
			<trkpt lat="43.935300" lon="-0.331700">
			 <ele>84</ele>
			<time>2017-01-09T07:29:59Z</time>
			</trkpt>
		
			<trkpt lat="43.935300" lon="-0.331700">
			 <ele>84</ele>
			<time>2017-01-09T07:31:59Z</time>
			</trkpt>
		
			<trkpt lat="43.933330" lon="-0.330200">
			 <ele>84</ele>
			<time>2017-01-09T07:33:59Z</time>
			</trkpt>
		
			<trkpt lat="43.933080" lon="-0.330080">
			 <ele>84</ele>
			<time>2017-01-09T07:35:59Z</time>
			</trkpt>
		
			<trkpt lat="43.932910" lon="-0.330080">
			 <ele>83</ele>
			<time>2017-01-09T07:37:59Z</time>
			</trkpt>
		
			<trkpt lat="43.932680" lon="-0.330210">
			 <ele>82</ele>
			<time>2017-01-09T07:39:59Z</time>
			</trkpt>
		
			<trkpt lat="43.932440" lon="-0.330540">
			 <ele>82</ele>
			<time>2017-01-09T07:41:59Z</time>
			</trkpt>
		
			<trkpt lat="43.931110" lon="-0.332510">
			 <ele>81</ele>
			<time>2017-01-09T07:43:59Z</time>
			</trkpt>
		
			<trkpt lat="43.931010" lon="-0.332790">
			 <ele>81</ele>
			<time>2017-01-09T07:45:59Z</time>
			</trkpt>
		
			<trkpt lat="43.931010" lon="-0.332790">
			 <ele>81</ele>
			<time>2017-01-09T07:47:59Z</time>
			</trkpt>
		
			<trkpt lat="43.930160" lon="-0.332660">
			 <ele>82</ele>
			<time>2017-01-09T07:49:59Z</time>
			</trkpt>
		
			<trkpt lat="43.929990" lon="-0.332390">
			 <ele>83</ele>
			<time>2017-01-09T07:51:59Z</time>
			</trkpt>
		
			<trkpt lat="43.929870" lon="-0.331840">
			 <ele>85</ele>
			<time>2017-01-09T07:53:59Z</time>
			</trkpt>
		
			<trkpt lat="43.929760" lon="-0.331560">
			 <ele>86</ele>
			<time>2017-01-09T07:55:59Z</time>
			</trkpt>
		
			<trkpt lat="43.929760" lon="-0.331560">
			 <ele>86</ele>
			<time>2017-01-09T07:57:59Z</time>
			</trkpt>
		
			<trkpt lat="43.929140" lon="-0.330620">
			 <ele>92</ele>
			<time>2017-01-09T07:59:59Z</time>
			</trkpt>
		
			<trkpt lat="43.928790" lon="-0.330240">
			 <ele>90</ele>
			<time>2017-01-09T08:01:59Z</time>
			</trkpt>
		
			<trkpt lat="43.928540" lon="-0.330140">
			 <ele>90</ele>
			<time>2017-01-09T08:03:59Z</time>
			</trkpt>
		
			<trkpt lat="43.928060" lon="-0.330150">
			 <ele>89</ele>
			<time>2017-01-09T08:05:59Z</time>
			</trkpt>
		
			<trkpt lat="43.927930" lon="-0.330040">
			 <ele>89</ele>
			<time>2017-01-09T08:07:59Z</time>
			</trkpt>
		
			<trkpt lat="43.927690" lon="-0.329490">
			 <ele>88</ele>
			<time>2017-01-09T08:09:59Z</time>
			</trkpt>
		
			<trkpt lat="43.926250" lon="-0.325620">
			 <ele>94</ele>
			<time>2017-01-09T08:11:59Z</time>
			</trkpt>
		
			<trkpt lat="43.925660" lon="-0.323220">
			 <ele>98</ele>
			<time>2017-01-09T08:13:59Z</time>
			</trkpt>
		
			<trkpt lat="43.924440" lon="-0.319480">
			 <ele>98</ele>
			<time>2017-01-09T08:15:59Z</time>
			</trkpt>
		
			<trkpt lat="43.924390" lon="-0.319200">
			 <ele>97</ele>
			<time>2017-01-09T08:17:59Z</time>
			</trkpt>
		
			<trkpt lat="43.924370" lon="-0.318700">
			 <ele>98</ele>
			<time>2017-01-09T08:19:59Z</time>
			</trkpt>
		
			<trkpt lat="43.924290" lon="-0.312790">
			 <ele>91</ele>
			<time>2017-01-09T08:21:59Z</time>
			</trkpt>
		
			<trkpt lat="43.924200" lon="-0.312340">
			 <ele>92</ele>
			<time>2017-01-09T08:23:59Z</time>
			</trkpt>
		
			<trkpt lat="43.923920" lon="-0.311920">
			 <ele>93</ele>
			<time>2017-01-09T08:25:59Z</time>
			</trkpt>
		
			<trkpt lat="43.919570" lon="-0.306590">
			 <ele>89</ele>
			<time>2017-01-09T08:27:59Z</time>
			</trkpt>
		
			<trkpt lat="43.919570" lon="-0.306590">
			 <ele>89</ele>
			<time>2017-01-09T08:29:59Z</time>
			</trkpt>
		
			<trkpt lat="43.919120" lon="-0.306050">
			 <ele>86</ele>
			<time>2017-01-09T08:31:59Z</time>
			</trkpt>
		
			<trkpt lat="43.919050" lon="-0.305820">
			 <ele>85</ele>
			<time>2017-01-09T08:33:59Z</time>
			</trkpt>
		
			<trkpt lat="43.919050" lon="-0.305820">
			 <ele>85</ele>
			<time>2017-01-09T08:35:59Z</time>
			</trkpt>
		
			<trkpt lat="43.909290" lon="-0.303900">
			 <ele>70</ele>
			<time>2017-01-09T08:37:59Z</time>
			</trkpt>
		
			<trkpt lat="43.909290" lon="-0.303900">
			 <ele>70</ele>
			<time>2017-01-09T08:39:59Z</time>
			</trkpt>
		
			<trkpt lat="43.909170" lon="-0.303920">
			 <ele>70</ele>
			<time>2017-01-09T08:41:59Z</time>
			</trkpt>
		
			<trkpt lat="43.908270" lon="-0.303740">
			 <ele>71</ele>
			<time>2017-01-09T08:43:59Z</time>
			</trkpt>
		
			<trkpt lat="43.907600" lon="-0.303690">
			 <ele>73</ele>
			<time>2017-01-09T08:45:59Z</time>
			</trkpt>
		
			<trkpt lat="43.903550" lon="-0.303640">
			 <ele>66</ele>
			<time>2017-01-09T08:47:59Z</time>
			</trkpt>
		
			<trkpt lat="43.903550" lon="-0.303640">
			 <ele>66</ele>
			<time>2017-01-09T08:49:59Z</time>
			</trkpt>
		
			<trkpt lat="43.902840" lon="-0.303640">
			 <ele>60</ele>
			<time>2017-01-09T08:51:59Z</time>
			</trkpt>
		
			<trkpt lat="43.902630" lon="-0.303720">
			 <ele>58</ele>
			<time>2017-01-09T08:53:59Z</time>
			</trkpt>
		
			<trkpt lat="43.902410" lon="-0.303880">
			 <ele>57</ele>
			<time>2017-01-09T08:55:59Z</time>
			</trkpt>
		
			<trkpt lat="43.899620" lon="-0.306980">
			 <ele>64</ele>
			<time>2017-01-09T08:57:59Z</time>
			</trkpt>
		
			<trkpt lat="43.899220" lon="-0.307300">
			 <ele>68</ele>
			<time>2017-01-09T08:59:59Z</time>
			</trkpt>
		
			<trkpt lat="43.898900" lon="-0.307460">
			 <ele>71</ele>
			<time>2017-01-09T09:01:59Z</time>
			</trkpt>
		
			<trkpt lat="43.898580" lon="-0.307550">
			 <ele>74</ele>
			<time>2017-01-09T09:03:59Z</time>
			</trkpt>
		
			<trkpt lat="43.898140" lon="-0.307540">
			 <ele>76</ele>
			<time>2017-01-09T09:05:59Z</time>
			</trkpt>
		
			<trkpt lat="43.896410" lon="-0.306820">
			 <ele>80</ele>
			<time>2017-01-09T09:07:59Z</time>
			</trkpt>
		
			<trkpt lat="43.896410" lon="-0.306820">
			 <ele>80</ele>
			<time>2017-01-09T09:09:59Z</time>
			</trkpt>
		
			<trkpt lat="43.896180" lon="-0.306720">
			 <ele>80</ele>
			<time>2017-01-09T09:11:59Z</time>
			</trkpt>
		
			<trkpt lat="43.896180" lon="-0.306720">
			 <ele>80</ele>
			<time>2017-01-09T09:13:59Z</time>
			</trkpt>
		
			<trkpt lat="43.896140" lon="-0.306820">
			 <ele>81</ele>
			<time>2017-01-09T09:15:59Z</time>
			</trkpt>
		
			<trkpt lat="43.895810" lon="-0.307210">
			 <ele>83</ele>
			<time>2017-01-09T09:17:59Z</time>
			</trkpt>
		
			<trkpt lat="43.895810" lon="-0.307210">
			 <ele>83</ele>
			<time>2017-01-09T09:19:59Z</time>
			</trkpt>
		
			<trkpt lat="43.895430" lon="-0.307580">
			 <ele>85</ele>
			<time>2017-01-09T09:21:59Z</time>
			</trkpt>
		
			<trkpt lat="43.894170" lon="-0.308410">
			 <ele>89</ele>
			<time>2017-01-09T09:23:59Z</time>
			</trkpt>
		
			<trkpt lat="43.894170" lon="-0.308410">
			 <ele>89</ele>
			<time>2017-01-09T09:25:59Z</time>
			</trkpt>
		
			<trkpt lat="43.892690" lon="-0.309380">
			 <ele>89</ele>
			<time>2017-01-09T09:27:59Z</time>
			</trkpt>
		
			<trkpt lat="43.891970" lon="-0.309950">
			 <ele>90</ele>
			<time>2017-01-09T09:29:59Z</time>
			</trkpt>
		
			<trkpt lat="43.891970" lon="-0.309950">
			 <ele>90</ele>
			<time>2017-01-09T09:31:59Z</time>
			</trkpt>
		
			<trkpt lat="43.891480" lon="-0.310290">
			 <ele>90</ele>
			<time>2017-01-09T09:33:59Z</time>
			</trkpt>
		
			<trkpt lat="43.890650" lon="-0.310750">
			 <ele>90</ele>
			<time>2017-01-09T09:35:59Z</time>
			</trkpt>
		
			<trkpt lat="43.890650" lon="-0.310750">
			 <ele>90</ele>
			<time>2017-01-09T09:37:59Z</time>
			</trkpt>
		
			<trkpt lat="43.889030" lon="-0.311640">
			 <ele>90</ele>
			<time>2017-01-09T09:39:59Z</time>
			</trkpt>
		
			<trkpt lat="43.888870" lon="-0.311640">
			 <ele>90</ele>
			<time>2017-01-09T09:41:59Z</time>
			</trkpt>
		
			<trkpt lat="43.888530" lon="-0.311470">
			 <ele>90</ele>
			<time>2017-01-09T09:43:59Z</time>
			</trkpt>
		
			<trkpt lat="43.888090" lon="-0.311360">
			 <ele>89</ele>
			<time>2017-01-09T09:45:59Z</time>
			</trkpt>
		
			<trkpt lat="43.887150" lon="-0.311410">
			 <ele>89</ele>
			<time>2017-01-09T09:47:59Z</time>
			</trkpt>
		
			<trkpt lat="43.886700" lon="-0.311550">
			 <ele>88</ele>
			<time>2017-01-09T09:49:59Z</time>
			</trkpt>
		
			<trkpt lat="43.886510" lon="-0.311460">
			 <ele>88</ele>
			<time>2017-01-09T09:51:59Z</time>
			</trkpt>
		
			<trkpt lat="43.886510" lon="-0.311460">
			 <ele>88</ele>
			<time>2017-01-09T09:53:59Z</time>
			</trkpt>
		
			<trkpt lat="43.886310" lon="-0.311600">
			 <ele>88</ele>
			<time>2017-01-09T09:55:59Z</time>
			</trkpt>
		
			<trkpt lat="43.885380" lon="-0.311990">
			 <ele>90</ele>
			<time>2017-01-09T09:57:59Z</time>
			</trkpt>
		
			<trkpt lat="43.884210" lon="-0.312750">
			 <ele>92</ele>
			<time>2017-01-09T09:59:59Z</time>
			</trkpt>
		
			<trkpt lat="43.882720" lon="-0.313560">
			 <ele>95</ele>
			<time>2017-01-09T10:01:59Z</time>
			</trkpt>
		
			<trkpt lat="43.881660" lon="-0.314330">
			 <ele>98</ele>
			<time>2017-01-09T10:03:59Z</time>
			</trkpt>
		
			<trkpt lat="43.881050" lon="-0.315050">
			 <ele>99</ele>
			<time>2017-01-09T10:05:59Z</time>
			</trkpt>
		
			<trkpt lat="43.880660" lon="-0.315430">
			 <ele>99</ele>
			<time>2017-01-09T10:07:59Z</time>
			</trkpt>
		
			<trkpt lat="43.879760" lon="-0.316050">
			 <ele>102</ele>
			<time>2017-01-09T10:09:59Z</time>
			</trkpt>
		
			<trkpt lat="43.878720" lon="-0.316530">
			 <ele>108</ele>
			<time>2017-01-09T10:11:59Z</time>
			</trkpt>
		
			<trkpt lat="43.878350" lon="-0.316830">
			 <ele>111</ele>
			<time>2017-01-09T10:13:59Z</time>
			</trkpt>
		
			<trkpt lat="43.878350" lon="-0.316830">
			 <ele>111</ele>
			<time>2017-01-09T10:15:59Z</time>
			</trkpt>
		
			<trkpt lat="43.878000" lon="-0.317130">
			 <ele>113</ele>
			<time>2017-01-09T10:17:59Z</time>
			</trkpt>
		
			<trkpt lat="43.877400" lon="-0.317960">
			 <ele>115</ele>
			<time>2017-01-09T10:19:59Z</time>
			</trkpt>
		
			<trkpt lat="43.876880" lon="-0.318360">
			 <ele>113</ele>
			<time>2017-01-09T10:21:59Z</time>
			</trkpt>
		
			<trkpt lat="43.875670" lon="-0.319100">
			 <ele>109</ele>
			<time>2017-01-09T10:23:59Z</time>
			</trkpt>
		
			<trkpt lat="43.875020" lon="-0.319160">
			 <ele>105</ele>
			<time>2017-01-09T10:25:59Z</time>
			</trkpt>
		
			<trkpt lat="43.874850" lon="-0.319270">
			 <ele>105</ele>
			<time>2017-01-09T10:27:59Z</time>
			</trkpt>
		
			<trkpt lat="43.874800" lon="-0.319550">
			 <ele>104</ele>
			<time>2017-01-09T10:29:59Z</time>
			</trkpt>
		
			<trkpt lat="43.874790" lon="-0.320760">
			 <ele>99</ele>
			<time>2017-01-09T10:31:59Z</time>
			</trkpt>
		
			<trkpt lat="43.874530" lon="-0.322860">
			 <ele>94</ele>
			<time>2017-01-09T10:33:59Z</time>
			</trkpt>
		
			<trkpt lat="43.874340" lon="-0.323560">
			 <ele>94</ele>
			<time>2017-01-09T10:35:59Z</time>
			</trkpt>
		
			<trkpt lat="43.873990" lon="-0.324140">
			 <ele>93</ele>
			<time>2017-01-09T10:37:59Z</time>
			</trkpt>
		
			<trkpt lat="43.873990" lon="-0.324140">
			 <ele>93</ele>
			<time>2017-01-09T10:39:59Z</time>
			</trkpt>
		
			<trkpt lat="43.873430" lon="-0.324980">
			 <ele>88</ele>
			<time>2017-01-09T10:41:59Z</time>
			</trkpt>
		
			<trkpt lat="43.873310" lon="-0.325100">
			 <ele>87</ele>
			<time>2017-01-09T10:43:59Z</time>
			</trkpt>
		
			<trkpt lat="43.872600" lon="-0.325460">
			 <ele>92</ele>
			<time>2017-01-09T10:45:59Z</time>
			</trkpt>
		
			<trkpt lat="43.872600" lon="-0.325460">
			 <ele>92</ele>
			<time>2017-01-09T10:47:59Z</time>
			</trkpt>
		
			<trkpt lat="43.871720" lon="-0.325800">
			 <ele>88</ele>
			<time>2017-01-09T10:49:59Z</time>
			</trkpt>
		
			<trkpt lat="43.871490" lon="-0.325970">
			 <ele>87</ele>
			<time>2017-01-09T10:51:59Z</time>
			</trkpt>
		
			<trkpt lat="43.871050" lon="-0.326680">
			 <ele>85</ele>
			<time>2017-01-09T10:53:59Z</time>
			</trkpt>
		
			<trkpt lat="43.870950" lon="-0.326770">
			 <ele>85</ele>
			<time>2017-01-09T10:55:59Z</time>
			</trkpt>
		
			<trkpt lat="43.869960" lon="-0.327200">
			 <ele>88</ele>
			<time>2017-01-09T10:57:59Z</time>
			</trkpt>
		
			<trkpt lat="43.869960" lon="-0.327200">
			 <ele>88</ele>
			<time>2017-01-09T10:59:59Z</time>
			</trkpt>
		
			<trkpt lat="43.869710" lon="-0.328100">
			 <ele>89</ele>
			<time>2017-01-09T11:01:59Z</time>
			</trkpt>
		
			<trkpt lat="43.869660" lon="-0.328180">
			 <ele>90</ele>
			<time>2017-01-09T11:03:59Z</time>
			</trkpt>
		
			<trkpt lat="43.869140" lon="-0.328520">
			 <ele>89</ele>
			<time>2017-01-09T11:05:59Z</time>
			</trkpt>
		
			<trkpt lat="43.868990" lon="-0.328700">
			 <ele>88</ele>
			<time>2017-01-09T11:07:59Z</time>
			</trkpt>
		
			<trkpt lat="43.868910" lon="-0.329040">
			 <ele>88</ele>
			<time>2017-01-09T11:09:59Z</time>
			</trkpt>
		
			<trkpt lat="43.868890" lon="-0.329680">
			 <ele>88</ele>
			<time>2017-01-09T11:11:59Z</time>
			</trkpt>
		
			<trkpt lat="43.868740" lon="-0.329970">
			 <ele>87</ele>
			<time>2017-01-09T11:13:59Z</time>
			</trkpt>
		
			<trkpt lat="43.868060" lon="-0.330630">
			 <ele>84</ele>
			<time>2017-01-09T11:15:59Z</time>
			</trkpt>
		
			<trkpt lat="43.866190" lon="-0.331990">
			 <ele>81</ele>
			<time>2017-01-09T11:17:59Z</time>
			</trkpt>
		
			<trkpt lat="43.865400" lon="-0.332640">
			 <ele>78</ele>
			<time>2017-01-09T11:19:59Z</time>
			</trkpt>
		
			<trkpt lat="43.865400" lon="-0.332640">
			 <ele>78</ele>
			<time>2017-01-09T11:21:59Z</time>
			</trkpt>
		
			<trkpt lat="43.864820" lon="-0.333000">
			 <ele>76</ele>
			<time>2017-01-09T11:23:59Z</time>
			</trkpt>
		
			<trkpt lat="43.864670" lon="-0.333030">
			 <ele>76</ele>
			<time>2017-01-09T11:25:59Z</time>
			</trkpt>
		
			<trkpt lat="43.864670" lon="-0.333030">
			 <ele>76</ele>
			<time>2017-01-09T11:27:59Z</time>
			</trkpt>
		
			<trkpt lat="43.864350" lon="-0.332710">
			 <ele>75</ele>
			<time>2017-01-09T11:29:59Z</time>
			</trkpt>
		
			<trkpt lat="43.864350" lon="-0.332710">
			 <ele>75</ele>
			<time>2017-01-09T11:31:59Z</time>
			</trkpt>
		
			<trkpt lat="43.864300" lon="-0.332760">
			 <ele>75</ele>
			<time>2017-01-09T11:33:59Z</time>
			</trkpt>
		
			<trkpt lat="43.863050" lon="-0.333140">
			 <ele>71</ele>
			<time>2017-01-09T11:35:59Z</time>
			</trkpt>
		
			<trkpt lat="43.862510" lon="-0.333380">
			 <ele>70</ele>
			<time>2017-01-09T11:37:59Z</time>
			</trkpt>
		
			<trkpt lat="43.862410" lon="-0.333370">
			 <ele>70</ele>
			<time>2017-01-09T11:39:59Z</time>
			</trkpt>
		
			<trkpt lat="43.862330" lon="-0.333300">
			 <ele>70</ele>
			<time>2017-01-09T11:41:59Z</time>
			</trkpt>
		
			<trkpt lat="43.862100" lon="-0.332880">
			 <ele>70</ele>
			<time>2017-01-09T11:43:59Z</time>
			</trkpt>
		
			<trkpt lat="43.862100" lon="-0.332880">
			 <ele>70</ele>
			<time>2017-01-09T11:45:59Z</time>
			</trkpt>
		
			<trkpt lat="43.861850" lon="-0.332420">
			 <ele>71</ele>
			<time>2017-01-09T11:47:59Z</time>
			</trkpt>
		
			<trkpt lat="43.861650" lon="-0.332190">
			 <ele>73</ele>
			<time>2017-01-09T11:49:59Z</time>
			</trkpt>
		
			<trkpt lat="43.861090" lon="-0.331700">
			 <ele>75</ele>
			<time>2017-01-09T11:51:59Z</time>
			</trkpt>
		
			<trkpt lat="43.860700" lon="-0.331090">
			 <ele>78</ele>
			<time>2017-01-09T11:53:59Z</time>
			</trkpt>
		
			<trkpt lat="43.859270" lon="-0.329960">
			 <ele>73</ele>
			<time>2017-01-09T11:55:59Z</time>
			</trkpt>
		
			<trkpt lat="43.859040" lon="-0.329930">
			 <ele>72</ele>
			<time>2017-01-09T11:57:59Z</time>
			</trkpt>
		
			<trkpt lat="43.857430" lon="-0.330310">
			 <ele>67</ele>
			<time>2017-01-09T11:59:59Z</time>
			</trkpt>
		
			<trkpt lat="43.857160" lon="-0.330270">
			 <ele>67</ele>
			<time>2017-01-09T12:01:59Z</time>
			</trkpt>
		
			<trkpt lat="43.856860" lon="-0.330020">
			 <ele>68</ele>
			<time>2017-01-09T12:03:59Z</time>
			</trkpt>
		
			<trkpt lat="43.856860" lon="-0.330020">
			 <ele>68</ele>
			<time>2017-01-09T12:05:59Z</time>
			</trkpt>
		
			<trkpt lat="43.856360" lon="-0.329570">
			 <ele>69</ele>
			<time>2017-01-09T12:07:59Z</time>
			</trkpt>
		
			<trkpt lat="43.856360" lon="-0.329570">
			 <ele>69</ele>
			<time>2017-01-09T12:09:59Z</time>
			</trkpt>
		
			<trkpt lat="43.856270" lon="-0.329850">
			 <ele>69</ele>
			<time>2017-01-09T12:11:59Z</time>
			</trkpt>
		
			<trkpt lat="43.856180" lon="-0.330390">
			 <ele>69</ele>
			<time>2017-01-09T12:13:59Z</time>
			</trkpt>
		
			<trkpt lat="43.856180" lon="-0.330390">
			 <ele>69</ele>
			<time>2017-01-09T12:15:59Z</time>
			</trkpt>
		
			<trkpt lat="43.855760" lon="-0.330690">
			 <ele>70</ele>
			<time>2017-01-09T12:17:59Z</time>
			</trkpt>
		
			<trkpt lat="43.855760" lon="-0.330690">
			 <ele>70</ele>
			<time>2017-01-09T12:19:59Z</time>
			</trkpt>
		
			<trkpt lat="43.855110" lon="-0.331340">
			 <ele>71</ele>
			<time>2017-01-09T12:21:59Z</time>
			</trkpt>
		
			<trkpt lat="43.855110" lon="-0.331340">
			 <ele>71</ele>
			<time>2017-01-09T12:23:59Z</time>
			</trkpt>
		
			<trkpt lat="43.855480" lon="-0.331990">
			 <ele>71</ele>
			<time>2017-01-09T12:25:59Z</time>
			</trkpt>
		
			<trkpt lat="43.856190" lon="-0.333060">
			 <ele>72</ele>
			<time>2017-01-09T12:27:59Z</time>
			</trkpt>
		
			<trkpt lat="43.856190" lon="-0.333060">
			 <ele>72</ele>
			<time>2017-01-09T12:29:59Z</time>
			</trkpt>
		
			<trkpt lat="43.857170" lon="-0.334560">
			 <ele>72</ele>
			<time>2017-01-09T12:31:59Z</time>
			</trkpt>
		
			<trkpt lat="43.857300" lon="-0.334940">
			 <ele>72</ele>
			<time>2017-01-09T12:33:59Z</time>
			</trkpt>
		
			<trkpt lat="43.857490" lon="-0.335720">
			 <ele>73</ele>
			<time>2017-01-09T12:35:59Z</time>
			</trkpt>
		
			<trkpt lat="43.857490" lon="-0.335930">
			 <ele>73</ele>
			<time>2017-01-09T12:37:59Z</time>
			</trkpt>
		
			<trkpt lat="43.857460" lon="-0.336060">
			 <ele>73</ele>
			<time>2017-01-09T12:39:59Z</time>
			</trkpt>
		
			<trkpt lat="43.856360" lon="-0.337800">
			 <ele>76</ele>
			<time>2017-01-09T12:41:59Z</time>
			</trkpt>
		
			<trkpt lat="43.856180" lon="-0.338190">
			 <ele>77</ele>
			<time>2017-01-09T12:43:59Z</time>
			</trkpt>
		
			<trkpt lat="43.855420" lon="-0.340870">
			 <ele>86</ele>
			<time>2017-01-09T12:45:59Z</time>
			</trkpt>
		
			<trkpt lat="43.855040" lon="-0.342580">
			 <ele>89</ele>
			<time>2017-01-09T12:47:59Z</time>
			</trkpt>
		
			<trkpt lat="43.854200" lon="-0.344180">
			 <ele>99</ele>
			<time>2017-01-09T12:49:59Z</time>
			</trkpt>
		
			<trkpt lat="43.854420" lon="-0.345100">
			 <ele>95</ele>
			<time>2017-01-09T12:51:59Z</time>
			</trkpt>
		
			<trkpt lat="43.854280" lon="-0.345560">
			 <ele>95</ele>
			<time>2017-01-09T12:53:59Z</time>
			</trkpt>
		
			<trkpt lat="43.853590" lon="-0.347330">
			 <ele>93</ele>
			<time>2017-01-09T12:55:59Z</time>
			</trkpt>
		
			<trkpt lat="43.853570" lon="-0.347630">
			 <ele>93</ele>
			<time>2017-01-09T12:57:59Z</time>
			</trkpt>
		
			<trkpt lat="43.853730" lon="-0.348250">
			 <ele>90</ele>
			<time>2017-01-09T12:59:59Z</time>
			</trkpt>
		
			<trkpt lat="43.853770" lon="-0.348830">
			 <ele>91</ele>
			<time>2017-01-09T13:01:59Z</time>
			</trkpt>
		
			<trkpt lat="43.853440" lon="-0.350070">
			 <ele>91</ele>
			<time>2017-01-09T13:03:59Z</time>
			</trkpt>
		
			<trkpt lat="43.853350" lon="-0.350920">
			 <ele>93</ele>
			<time>2017-01-09T13:05:59Z</time>
			</trkpt>
		
			<trkpt lat="43.853360" lon="-0.351640">
			 <ele>95</ele>
			<time>2017-01-09T13:07:59Z</time>
			</trkpt>
		
			<trkpt lat="43.853550" lon="-0.354050">
			 <ele>91</ele>
			<time>2017-01-09T13:09:59Z</time>
			</trkpt>
		
			<trkpt lat="43.853790" lon="-0.355510">
			 <ele>91</ele>
			<time>2017-01-09T13:11:59Z</time>
			</trkpt>
		
			<trkpt lat="43.853900" lon="-0.355790">
			 <ele>91</ele>
			<time>2017-01-09T13:13:59Z</time>
			</trkpt>
		
			<trkpt lat="43.854130" lon="-0.356160">
			 <ele>90</ele>
			<time>2017-01-09T13:15:59Z</time>
			</trkpt>
		
			<trkpt lat="43.854340" lon="-0.357230">
			 <ele>89</ele>
			<time>2017-01-09T13:17:59Z</time>
			</trkpt>
		
			<trkpt lat="43.854440" lon="-0.358010">
			 <ele>90</ele>
			<time>2017-01-09T13:19:59Z</time>
			</trkpt>
		
			<trkpt lat="43.854510" lon="-0.358190">
			 <ele>90</ele>
			<time>2017-01-09T13:21:59Z</time>
			</trkpt>
		
			<trkpt lat="43.855050" lon="-0.359000">
			 <ele>90</ele>
			<time>2017-01-09T13:23:59Z</time>
			</trkpt>
		
			<trkpt lat="43.855350" lon="-0.359330">
			 <ele>90</ele>
			<time>2017-01-09T13:25:59Z</time>
			</trkpt>
		
			<trkpt lat="43.855590" lon="-0.359450">
			 <ele>90</ele>
			<time>2017-01-09T13:27:59Z</time>
			</trkpt>
		
			<trkpt lat="43.855980" lon="-0.359380">
			 <ele>91</ele>
			<time>2017-01-09T13:29:59Z</time>
			</trkpt>
		
			<trkpt lat="43.855980" lon="-0.359380">
			 <ele>91</ele>
			<time>2017-01-09T13:31:59Z</time>
			</trkpt>
		
			<trkpt lat="43.856330" lon="-0.359240">
			 <ele>91</ele>
			<time>2017-01-09T13:33:59Z</time>
			</trkpt>
		
			<trkpt lat="43.856770" lon="-0.358860">
			 <ele>91</ele>
			<time>2017-01-09T13:35:59Z</time>
			</trkpt>
		
			<trkpt lat="43.857000" lon="-0.358790">
			 <ele>91</ele>
			<time>2017-01-09T13:37:59Z</time>
			</trkpt>
		
			<trkpt lat="43.857320" lon="-0.358840">
			 <ele>91</ele>
			<time>2017-01-09T13:39:59Z</time>
			</trkpt>
		
			<trkpt lat="43.857680" lon="-0.358970">
			 <ele>91</ele>
			<time>2017-01-09T13:41:59Z</time>
			</trkpt>
		
			<trkpt lat="43.857850" lon="-0.359170">
			 <ele>91</ele>
			<time>2017-01-09T13:43:59Z</time>
			</trkpt>
		
			<trkpt lat="43.857870" lon="-0.359450">
			 <ele>91</ele>
			<time>2017-01-09T13:45:59Z</time>
			</trkpt>
		
			<trkpt lat="43.857820" lon="-0.360790">
			 <ele>92</ele>
			<time>2017-01-09T13:47:59Z</time>
			</trkpt>
		
			<trkpt lat="43.857630" lon="-0.361360">
			 <ele>93</ele>
			<time>2017-01-09T13:49:59Z</time>
			</trkpt>
		
			<trkpt lat="43.857620" lon="-0.361710">
			 <ele>93</ele>
			<time>2017-01-09T13:51:59Z</time>
			</trkpt>
		
			<trkpt lat="43.857770" lon="-0.362070">
			 <ele>94</ele>
			<time>2017-01-09T13:53:59Z</time>
			</trkpt>
		
			<trkpt lat="43.857950" lon="-0.362840">
			 <ele>98</ele>
			<time>2017-01-09T13:55:59Z</time>
			</trkpt>
		
			<trkpt lat="43.858090" lon="-0.364380">
			 <ele>99</ele>
			<time>2017-01-09T13:57:59Z</time>
			</trkpt>
		
			<trkpt lat="43.858170" lon="-0.364900">
			 <ele>97</ele>
			<time>2017-01-09T13:59:59Z</time>
			</trkpt>
		
			<trkpt lat="43.858330" lon="-0.365290">
			 <ele>98</ele>
			<time>2017-01-09T14:01:59Z</time>
			</trkpt>
		
			<trkpt lat="43.859210" lon="-0.366510">
			 <ele>102</ele>
			<time>2017-01-09T14:03:59Z</time>
			</trkpt>
		
			<trkpt lat="43.859430" lon="-0.367630">
			 <ele>102</ele>
			<time>2017-01-09T14:05:59Z</time>
			</trkpt>
		
			<trkpt lat="43.860110" lon="-0.370480">
			 <ele>100</ele>
			<time>2017-01-09T14:07:59Z</time>
			</trkpt>
		
			<trkpt lat="43.860600" lon="-0.373270">
			 <ele>96</ele>
			<time>2017-01-09T14:09:59Z</time>
			</trkpt>
		
			<trkpt lat="43.860660" lon="-0.374190">
			 <ele>92</ele>
			<time>2017-01-09T14:11:59Z</time>
			</trkpt>
		
			<trkpt lat="43.860670" lon="-0.376150">
			 <ele>87</ele>
			<time>2017-01-09T14:13:59Z</time>
			</trkpt>
		
			<trkpt lat="43.860710" lon="-0.376670">
			 <ele>86</ele>
			<time>2017-01-09T14:15:59Z</time>
			</trkpt>
		
			<trkpt lat="43.860770" lon="-0.376930">
			 <ele>84</ele>
			<time>2017-01-09T14:17:59Z</time>
			</trkpt>
		
			<trkpt lat="43.860840" lon="-0.377110">
			 <ele>83</ele>
			<time>2017-01-09T14:19:59Z</time>
			</trkpt>
		
			<trkpt lat="43.861630" lon="-0.378270">
			 <ele>84</ele>
			<time>2017-01-09T14:21:59Z</time>
			</trkpt>
		
			<trkpt lat="43.862050" lon="-0.379550">
			 <ele>87</ele>
			<time>2017-01-09T14:23:59Z</time>
			</trkpt>
		
			<trkpt lat="43.862570" lon="-0.380580">
			 <ele>89</ele>
			<time>2017-01-09T14:25:59Z</time>
			</trkpt>
		
			<trkpt lat="43.862620" lon="-0.380960">
			 <ele>87</ele>
			<time>2017-01-09T14:27:59Z</time>
			</trkpt>
		
			<trkpt lat="43.862610" lon="-0.383160">
			 <ele>85</ele>
			<time>2017-01-09T14:29:59Z</time>
			</trkpt>
		
			<trkpt lat="43.862670" lon="-0.383420">
			 <ele>84</ele>
			<time>2017-01-09T14:31:59Z</time>
			</trkpt>
		
			<trkpt lat="43.863060" lon="-0.384470">
			 <ele>81</ele>
			<time>2017-01-09T14:33:59Z</time>
			</trkpt>
		
			<trkpt lat="43.863760" lon="-0.385670">
			 <ele>82</ele>
			<time>2017-01-09T14:35:59Z</time>
			</trkpt>
		
			<trkpt lat="43.864330" lon="-0.387080">
			 <ele>81</ele>
			<time>2017-01-09T14:37:59Z</time>
			</trkpt>
		
			<trkpt lat="43.864620" lon="-0.387700">
			 <ele>80</ele>
			<time>2017-01-09T14:39:59Z</time>
			</trkpt>
		
			<trkpt lat="43.864960" lon="-0.388110">
			 <ele>78</ele>
			<time>2017-01-09T14:41:59Z</time>
			</trkpt>
		
			<trkpt lat="43.865930" lon="-0.389090">
			 <ele>78</ele>
			<time>2017-01-09T14:43:59Z</time>
			</trkpt>
		
			<trkpt lat="43.866600" lon="-0.389970">
			 <ele>75</ele>
			<time>2017-01-09T14:45:59Z</time>
			</trkpt>
		
			<trkpt lat="43.866790" lon="-0.390370">
			 <ele>74</ele>
			<time>2017-01-09T14:47:59Z</time>
			</trkpt>
		
			<trkpt lat="43.867130" lon="-0.391460">
			 <ele>73</ele>
			<time>2017-01-09T14:49:59Z</time>
			</trkpt>
		
			<trkpt lat="43.867170" lon="-0.391650">
			 <ele>72</ele>
			<time>2017-01-09T14:51:59Z</time>
			</trkpt>
		
			<trkpt lat="43.866950" lon="-0.392730">
			 <ele>73</ele>
			<time>2017-01-09T14:53:59Z</time>
			</trkpt>
		
			<trkpt lat="43.866830" lon="-0.392960">
			 <ele>73</ele>
			<time>2017-01-09T14:55:59Z</time>
			</trkpt>
		
			<trkpt lat="43.866000" lon="-0.394130">
			 <ele>75</ele>
			<time>2017-01-09T14:57:59Z</time>
			</trkpt>
		
			<trkpt lat="43.865710" lon="-0.394660">
			 <ele>78</ele>
			<time>2017-01-09T14:59:59Z</time>
			</trkpt>
		
			<trkpt lat="43.865510" lon="-0.395490">
			 <ele>82</ele>
			<time>2017-01-09T15:01:59Z</time>
			</trkpt>
		
			<trkpt lat="43.865220" lon="-0.396280">
			 <ele>84</ele>
			<time>2017-01-09T15:03:59Z</time>
			</trkpt>
		
			<trkpt lat="43.864870" lon="-0.397440">
			 <ele>90</ele>
			<time>2017-01-09T15:05:59Z</time>
			</trkpt>
		
			<trkpt lat="43.864860" lon="-0.397800">
			 <ele>91</ele>
			<time>2017-01-09T15:07:59Z</time>
			</trkpt>
		
			<trkpt lat="43.864970" lon="-0.399330">
			 <ele>90</ele>
			<time>2017-01-09T15:09:59Z</time>
			</trkpt>
		
			<trkpt lat="43.865060" lon="-0.399880">
			 <ele>90</ele>
			<time>2017-01-09T15:11:59Z</time>
			</trkpt>
		
			<trkpt lat="43.865210" lon="-0.400320">
			 <ele>89</ele>
			<time>2017-01-09T15:13:59Z</time>
			</trkpt>
		
			<trkpt lat="43.865730" lon="-0.401280">
			 <ele>85</ele>
			<time>2017-01-09T15:15:59Z</time>
			</trkpt>
		
			<trkpt lat="43.865980" lon="-0.401650">
			 <ele>85</ele>
			<time>2017-01-09T15:17:59Z</time>
			</trkpt>
		
			<trkpt lat="43.866270" lon="-0.401980">
			 <ele>82</ele>
			<time>2017-01-09T15:19:59Z</time>
			</trkpt>
		
			<trkpt lat="43.866420" lon="-0.402090">
			 <ele>81</ele>
			<time>2017-01-09T15:21:59Z</time>
			</trkpt>
		
			<trkpt lat="43.866920" lon="-0.402220">
			 <ele>77</ele>
			<time>2017-01-09T15:23:59Z</time>
			</trkpt>
		
			<trkpt lat="43.867140" lon="-0.402400">
			 <ele>76</ele>
			<time>2017-01-09T15:25:59Z</time>
			</trkpt>
		
			<trkpt lat="43.867490" lon="-0.403290">
			 <ele>76</ele>
			<time>2017-01-09T15:27:59Z</time>
			</trkpt>
		
			<trkpt lat="43.867490" lon="-0.403290">
			 <ele>76</ele>
			<time>2017-01-09T15:29:59Z</time>
			</trkpt>
		
			<trkpt lat="43.867770" lon="-0.404290">
			 <ele>79</ele>
			<time>2017-01-09T15:31:59Z</time>
			</trkpt>
		
			<trkpt lat="43.867770" lon="-0.404290">
			 <ele>79</ele>
			<time>2017-01-09T15:33:59Z</time>
			</trkpt>
		
			<trkpt lat="43.868010" lon="-0.404990">
			 <ele>79</ele>
			<time>2017-01-09T15:35:59Z</time>
			</trkpt>
		
			<trkpt lat="43.868010" lon="-0.405370">
			 <ele>80</ele>
			<time>2017-01-09T15:37:59Z</time>
			</trkpt>
		
			<trkpt lat="43.867910" lon="-0.405710">
			 <ele>81</ele>
			<time>2017-01-09T15:39:59Z</time>
			</trkpt>
		
			<trkpt lat="43.867420" lon="-0.406290">
			 <ele>82</ele>
			<time>2017-01-09T15:41:59Z</time>
			</trkpt>
		
			<trkpt lat="43.867420" lon="-0.406290">
			 <ele>82</ele>
			<time>2017-01-09T15:43:59Z</time>
			</trkpt>
		
			<trkpt lat="43.867890" lon="-0.407350">
			 <ele>84</ele>
			<time>2017-01-09T15:45:59Z</time>
			</trkpt>
		
			<trkpt lat="43.867890" lon="-0.407350">
			 <ele>84</ele>
			<time>2017-01-09T15:47:59Z</time>
			</trkpt>
		
			<trkpt lat="43.868260" lon="-0.408200">
			 <ele>86</ele>
			<time>2017-01-09T15:49:59Z</time>
			</trkpt>
		
			<trkpt lat="43.868970" lon="-0.410110">
			 <ele>89</ele>
			<time>2017-01-09T15:51:59Z</time>
			</trkpt>
		
			<trkpt lat="43.869450" lon="-0.410830">
			 <ele>89</ele>
			<time>2017-01-09T15:53:59Z</time>
			</trkpt>
		
			<trkpt lat="43.869600" lon="-0.411150">
			 <ele>90</ele>
			<time>2017-01-09T15:55:59Z</time>
			</trkpt>
		
			<trkpt lat="43.869900" lon="-0.412420">
			 <ele>93</ele>
			<time>2017-01-09T15:57:59Z</time>
			</trkpt>
		
			<trkpt lat="43.869900" lon="-0.412850">
			 <ele>93</ele>
			<time>2017-01-09T15:59:59Z</time>
			</trkpt>
		
			<trkpt lat="43.869810" lon="-0.413100">
			 <ele>92</ele>
			<time>2017-01-09T16:01:59Z</time>
			</trkpt>
		
			<trkpt lat="43.869630" lon="-0.413420">
			 <ele>91</ele>
			<time>2017-01-09T16:03:59Z</time>
			</trkpt>
		
			<trkpt lat="43.869590" lon="-0.413580">
			 <ele>91</ele>
			<time>2017-01-09T16:05:59Z</time>
			</trkpt>
		
			<trkpt lat="43.869590" lon="-0.414140">
			 <ele>92</ele>
			<time>2017-01-09T16:07:59Z</time>
			</trkpt>
		
			<trkpt lat="43.869830" lon="-0.415620">
			 <ele>92</ele>
			<time>2017-01-09T16:09:59Z</time>
			</trkpt>
		
			<trkpt lat="43.870850" lon="-0.419240">
			 <ele>86</ele>
			<time>2017-01-09T16:11:59Z</time>
			</trkpt>
		
			<trkpt lat="43.870870" lon="-0.419710">
			 <ele>87</ele>
			<time>2017-01-09T16:13:59Z</time>
			</trkpt>
		
			<trkpt lat="43.870820" lon="-0.420100">
			 <ele>87</ele>
			<time>2017-01-09T16:15:59Z</time>
			</trkpt>
		
			<trkpt lat="43.870820" lon="-0.420930">
			 <ele>86</ele>
			<time>2017-01-09T16:17:59Z</time>
			</trkpt>
		
			<trkpt lat="43.871130" lon="-0.422210">
			 <ele>86</ele>
			<time>2017-01-09T16:19:59Z</time>
			</trkpt>
		
			<trkpt lat="43.871440" lon="-0.423980">
			 <ele>82</ele>
			<time>2017-01-09T16:21:59Z</time>
			</trkpt>
		
			<trkpt lat="43.871540" lon="-0.424830">
			 <ele>81</ele>
			<time>2017-01-09T16:23:59Z</time>
			</trkpt>
		
			<trkpt lat="43.871410" lon="-0.425410">
			 <ele>79</ele>
			<time>2017-01-09T16:25:59Z</time>
			</trkpt>
		
			<trkpt lat="43.871420" lon="-0.425730">
			 <ele>79</ele>
			<time>2017-01-09T16:27:59Z</time>
			</trkpt>
		
			<trkpt lat="43.871540" lon="-0.426640">
			 <ele>80</ele>
			<time>2017-01-09T16:29:59Z</time>
			</trkpt>
		
			<trkpt lat="43.871920" lon="-0.428430">
			 <ele>81</ele>
			<time>2017-01-09T16:31:59Z</time>
			</trkpt>
		
			<trkpt lat="43.871950" lon="-0.428750">
			 <ele>81</ele>
			<time>2017-01-09T16:33:59Z</time>
			</trkpt>
		
			<trkpt lat="43.871960" lon="-0.429100">
			 <ele>82</ele>
			<time>2017-01-09T16:35:59Z</time>
			</trkpt>
		
			<trkpt lat="43.871760" lon="-0.429620">
			 <ele>82</ele>
			<time>2017-01-09T16:37:59Z</time>
			</trkpt>
		
			<trkpt lat="43.871710" lon="-0.430000">
			 <ele>82</ele>
			<time>2017-01-09T16:39:59Z</time>
			</trkpt>
		
			<trkpt lat="43.871710" lon="-0.430000">
			 <ele>82</ele>
			<time>2017-01-09T16:41:59Z</time>
			</trkpt>
		
			<trkpt lat="43.872500" lon="-0.431890">
			 <ele>80</ele>
			<time>2017-01-09T16:43:59Z</time>
			</trkpt>
		
			<trkpt lat="43.873490" lon="-0.434100">
			 <ele>80</ele>
			<time>2017-01-09T16:45:59Z</time>
			</trkpt>
		
			<trkpt lat="43.873490" lon="-0.434100">
			 <ele>80</ele>
			<time>2017-01-09T16:47:59Z</time>
			</trkpt>
		
			<trkpt lat="43.873940" lon="-0.435100">
			 <ele>78</ele>
			<time>2017-01-09T16:49:59Z</time>
			</trkpt>
		
			<trkpt lat="43.873940" lon="-0.435100">
			 <ele>78</ele>
			<time>2017-01-09T16:51:59Z</time>
			</trkpt>
		
			<trkpt lat="43.871400" lon="-0.435050">
			 <ele>82</ele>
			<time>2017-01-09T16:53:59Z</time>
			</trkpt>
		
			<trkpt lat="43.871400" lon="-0.435050">
			 <ele>82</ele>
			<time>2017-01-09T16:55:59Z</time>
			</trkpt>
		
			<trkpt lat="43.870600" lon="-0.434920">
			 <ele>79</ele>
			<time>2017-01-09T16:57:59Z</time>
			</trkpt>
		
			<trkpt lat="43.870350" lon="-0.434950">
			 <ele>77</ele>
			<time>2017-01-09T16:59:59Z</time>
			</trkpt>
		
			<trkpt lat="43.869990" lon="-0.435230">
			 <ele>74</ele>
			<time>2017-01-09T17:01:59Z</time>
			</trkpt>
		
			<trkpt lat="43.868770" lon="-0.436580">
			 <ele>77</ele>
			<time>2017-01-09T17:03:59Z</time>
			</trkpt>
		
			<trkpt lat="43.867730" lon="-0.437510">
			 <ele>84</ele>
			<time>2017-01-09T17:05:59Z</time>
			</trkpt>
		
			<trkpt lat="43.867300" lon="-0.437840">
			 <ele>86</ele>
			<time>2017-01-09T17:07:59Z</time>
			</trkpt>
		
			<trkpt lat="43.866800" lon="-0.438110">
			 <ele>87</ele>
			<time>2017-01-09T17:09:59Z</time>
			</trkpt>
		
			<trkpt lat="43.866150" lon="-0.438310">
			 <ele>88</ele>
			<time>2017-01-09T17:11:59Z</time>
			</trkpt>
		
			<trkpt lat="43.865950" lon="-0.438500">
			 <ele>88</ele>
			<time>2017-01-09T17:13:59Z</time>
			</trkpt>
		
			<trkpt lat="43.865810" lon="-0.438800">
			 <ele>89</ele>
			<time>2017-01-09T17:15:59Z</time>
			</trkpt>
		
			<trkpt lat="43.865510" lon="-0.439820">
			 <ele>91</ele>
			<time>2017-01-09T17:17:59Z</time>
			</trkpt>
		
			<trkpt lat="43.865470" lon="-0.440290">
			 <ele>92</ele>
			<time>2017-01-09T17:19:59Z</time>
			</trkpt>
		
			<trkpt lat="43.865770" lon="-0.442230">
			 <ele>91</ele>
			<time>2017-01-09T17:21:59Z</time>
			</trkpt>
		
			<trkpt lat="43.865700" lon="-0.442940">
			 <ele>91</ele>
			<time>2017-01-09T17:23:59Z</time>
			</trkpt>
		
			<trkpt lat="43.865720" lon="-0.443370">
			 <ele>91</ele>
			<time>2017-01-09T17:25:59Z</time>
			</trkpt>
		
			<trkpt lat="43.866100" lon="-0.444700">
			 <ele>92</ele>
			<time>2017-01-09T17:27:59Z</time>
			</trkpt>
		
			<trkpt lat="43.866100" lon="-0.445140">
			 <ele>93</ele>
			<time>2017-01-09T17:29:59Z</time>
			</trkpt>
		
			<trkpt lat="43.866100" lon="-0.445140">
			 <ele>93</ele>
			<time>2017-01-09T17:31:59Z</time>
			</trkpt>
		
			<trkpt lat="43.865980" lon="-0.445360">
			 <ele>93</ele>
			<time>2017-01-09T17:33:59Z</time>
			</trkpt>
		
			<trkpt lat="43.865580" lon="-0.445590">
			 <ele>94</ele>
			<time>2017-01-09T17:35:59Z</time>
			</trkpt>
		
			<trkpt lat="43.865580" lon="-0.445590">
			 <ele>94</ele>
			<time>2017-01-09T17:37:59Z</time>
			</trkpt>
		
			<trkpt lat="43.865970" lon="-0.446620">
			 <ele>92</ele>
			<time>2017-01-09T17:39:59Z</time>
			</trkpt>
		
			<trkpt lat="43.865970" lon="-0.446620">
			 <ele>92</ele>
			<time>2017-01-09T17:41:59Z</time>
			</trkpt>
		
			<trkpt lat="43.866520" lon="-0.448200">
			 <ele>91</ele>
			<time>2017-01-09T17:43:59Z</time>
			</trkpt>
		
			<trkpt lat="43.868200" lon="-0.452370">
			 <ele>98</ele>
			<time>2017-01-09T17:45:59Z</time>
			</trkpt>
		
			<trkpt lat="43.870960" lon="-0.459440">
			 <ele>94</ele>
			<time>2017-01-09T17:47:59Z</time>
			</trkpt>
		
			<trkpt lat="43.871790" lon="-0.461330">
			 <ele>93</ele>
			<time>2017-01-09T17:49:59Z</time>
			</trkpt>
		
			<trkpt lat="43.872310" lon="-0.462620">
			 <ele>91</ele>
			<time>2017-01-09T17:51:59Z</time>
			</trkpt>
		
			<trkpt lat="43.872330" lon="-0.462790">
			 <ele>90</ele>
			<time>2017-01-09T17:53:59Z</time>
			</trkpt>
		
			<trkpt lat="43.872690" lon="-0.463770">
			 <ele>90</ele>
			<time>2017-01-09T17:55:59Z</time>
			</trkpt>
		
			<trkpt lat="43.874270" lon="-0.467790">
			 <ele>92</ele>
			<time>2017-01-09T17:57:59Z</time>
			</trkpt>
		
			<trkpt lat="43.874710" lon="-0.468690">
			 <ele>83</ele>
			<time>2017-01-09T17:59:59Z</time>
			</trkpt>
		
			<trkpt lat="43.874860" lon="-0.468710">
			 <ele>82</ele>
			<time>2017-01-09T18:01:59Z</time>
			</trkpt>
		
			<trkpt lat="43.875020" lon="-0.468880">
			 <ele>82</ele>
			<time>2017-01-09T18:03:59Z</time>
			</trkpt>
		
			<trkpt lat="43.875070" lon="-0.469040">
			 <ele>82</ele>
			<time>2017-01-09T18:05:59Z</time>
			</trkpt>
		
			<trkpt lat="43.875020" lon="-0.469340">
			 <ele>83</ele>
			<time>2017-01-09T18:07:59Z</time>
			</trkpt>
		
			<trkpt lat="43.875030" lon="-0.469510">
			 <ele>83</ele>
			<time>2017-01-09T18:09:59Z</time>
			</trkpt>
		
			<trkpt lat="43.875170" lon="-0.470040">
			 <ele>84</ele>
			<time>2017-01-09T18:11:59Z</time>
			</trkpt>
		
			<trkpt lat="43.875730" lon="-0.471360">
			 <ele>83</ele>
			<time>2017-01-09T18:13:59Z</time>
			</trkpt>
		
			<trkpt lat="43.876770" lon="-0.474030">
			 <ele>78</ele>
			<time>2017-01-09T18:15:59Z</time>
			</trkpt>
		
			<trkpt lat="43.876770" lon="-0.474030">
			 <ele>78</ele>
			<time>2017-01-09T18:17:59Z</time>
			</trkpt>
		
			<trkpt lat="43.881250" lon="-0.485330">
			 <ele>80</ele>
			<time>2017-01-09T18:19:59Z</time>
			</trkpt>
		
			<trkpt lat="43.881320" lon="-0.485390">
			 <ele>79</ele>
			<time>2017-01-09T18:21:59Z</time>
			</trkpt>
		
			<trkpt lat="43.881750" lon="-0.486340">
			 <ele>74</ele>
			<time>2017-01-09T18:23:59Z</time>
			</trkpt>
		
			<trkpt lat="43.881960" lon="-0.486700">
			 <ele>74</ele>
			<time>2017-01-09T18:25:59Z</time>
			</trkpt>
		
			<trkpt lat="43.882120" lon="-0.486700">
			 <ele>73</ele>
			<time>2017-01-09T18:27:59Z</time>
			</trkpt>
		
			<trkpt lat="43.882160" lon="-0.486780">
			 <ele>73</ele>
			<time>2017-01-09T18:29:59Z</time>
			</trkpt>
		
			<trkpt lat="43.882180" lon="-0.486920">
			 <ele>74</ele>
			<time>2017-01-09T18:31:59Z</time>
			</trkpt>
		
			<trkpt lat="43.882120" lon="-0.487060">
			 <ele>74</ele>
			<time>2017-01-09T18:33:59Z</time>
			</trkpt>
		
			<trkpt lat="43.882140" lon="-0.487280">
			 <ele>74</ele>
			<time>2017-01-09T18:35:59Z</time>
			</trkpt>
		
			<trkpt lat="43.882770" lon="-0.488800">
			 <ele>72</ele>
			<time>2017-01-09T18:37:59Z</time>
			</trkpt>
		
			<trkpt lat="43.885630" lon="-0.494700">
			 <ele>61</ele>
			<time>2017-01-09T18:39:59Z</time>
			</trkpt>
		
			<trkpt lat="43.886130" lon="-0.496340">
			 <ele>60</ele>
			<time>2017-01-09T18:41:59Z</time>
			</trkpt>
		
			<trkpt lat="43.886960" lon="-0.499430">
			 <ele>57</ele>
			<time>2017-01-09T18:43:59Z</time>
			</trkpt>
		
			<trkpt lat="43.887130" lon="-0.499770">
			 <ele>55</ele>
			<time>2017-01-09T18:45:59Z</time>
			</trkpt>
		
			<trkpt lat="43.887130" lon="-0.499770">
			 <ele>55</ele>
			<time>2017-01-09T18:47:59Z</time>
			</trkpt>
		
			<trkpt lat="43.887220" lon="-0.499850">
			 <ele>55</ele>
			<time>2017-01-09T18:49:59Z</time>
			</trkpt>
		
			<trkpt lat="43.887240" lon="-0.499960">
			 <ele>55</ele>
			<time>2017-01-09T18:51:59Z</time>
			</trkpt>
		
			<trkpt lat="43.887180" lon="-0.500060">
			 <ele>55</ele>
			<time>2017-01-09T18:53:59Z</time>
			</trkpt>
		
			<trkpt lat="43.887090" lon="-0.501190">
			 <ele>54</ele>
			<time>2017-01-09T18:55:59Z</time>
			</trkpt>
		
			<trkpt lat="43.887180" lon="-0.501760">
			 <ele>53</ele>
			<time>2017-01-09T18:57:59Z</time>
			</trkpt>
		
			<trkpt lat="43.887310" lon="-0.503900">
			 <ele>49</ele>
			<time>2017-01-09T18:59:59Z</time>
			</trkpt>
		
			<trkpt lat="43.887380" lon="-0.504110">
			 <ele>49</ele>
			<time>2017-01-09T19:01:59Z</time>
			</trkpt>
		
			<trkpt lat="43.887490" lon="-0.504210">
			 <ele>49</ele>
			<time>2017-01-09T19:03:59Z</time>
			</trkpt>
		
			<trkpt lat="43.887480" lon="-0.504410">
			 <ele>48</ele>
			<time>2017-01-09T19:05:59Z</time>
			</trkpt>
		
			<trkpt lat="43.887590" lon="-0.504720">
			 <ele>47</ele>
			<time>2017-01-09T19:07:59Z</time>
			</trkpt>
		
			<trkpt lat="43.888130" lon="-0.505860">
			 <ele>42</ele>
			<time>2017-01-09T19:09:59Z</time>
			</trkpt>
		
			<trkpt lat="43.888240" lon="-0.506170">
			 <ele>41</ele>
			<time>2017-01-09T19:11:59Z</time>
			</trkpt>
		
			<trkpt lat="43.888230" lon="-0.506460">
			 <ele>40</ele>
			<time>2017-01-09T19:13:59Z</time>
			</trkpt>
		
			<trkpt lat="43.887900" lon="-0.508220">
			 <ele>42</ele>
			<time>2017-01-09T19:15:59Z</time>
			</trkpt>
		
			<trkpt lat="43.887620" lon="-0.510040">
			 <ele>44</ele>
			<time>2017-01-09T19:17:59Z</time>
			</trkpt>
		
			<trkpt lat="43.887620" lon="-0.510040">
			 <ele>44</ele>
			<time>2017-01-09T19:19:59Z</time>
			</trkpt>
		
			<trkpt lat="43.886720" lon="-0.515910">
			 <ele>46</ele>
			<time>2017-01-09T19:21:59Z</time>
			</trkpt>
		
			<trkpt lat="43.886780" lon="-0.516160">
			 <ele>46</ele>
			<time>2017-01-09T19:23:59Z</time>
			</trkpt>
		
			<trkpt lat="43.886780" lon="-0.516160">
			 <ele>46</ele>
			<time>2017-01-09T19:25:59Z</time>
			</trkpt>
		
			<trkpt lat="43.887000" lon="-0.516230">
			 <ele>46</ele>
			<time>2017-01-09T19:27:59Z</time>
			</trkpt>
		
			<trkpt lat="43.888290" lon="-0.515890">
			 <ele>47</ele>
			<time>2017-01-09T19:29:59Z</time>
			</trkpt>
		
			<trkpt lat="43.893290" lon="-0.513880">
			 <ele>42</ele>
			<time>2017-01-09T19:31:59Z</time>
			</trkpt>
		
				</trkseg>
			   </trk>
			 </gpx>
	